Observation data for Dell City 1N on 12/09/2018      Previous  Date       Current Mesonet Observations  Soil Data  Daily Summary Page  Observations in Plain Language
KDC1 090600Z 29005KT 01/00 A3032 RMK A01 T00090004  RH  097%=      5-min Rain = 0
KDC1 090601Z 29005KT 01/00 A3032 RMK A01 T00090004  RH  097%=      5-min Rain = 0
KDC1 090602Z 29005KT 01/00 A3032 RMK A01 T00090004  RH  097%=      5-min Rain = 0
KDC1 090603Z 29005KT 01/00 A3032 RMK A01 T00090004  RH  097%=      5-min Rain = 0
KDC1 090604Z 29006KT 01/00 A3032 RMK A01 T00090004  RH  097%=      5-min Rain = 0
KDC1 090605Z 29006KT 01/00 A3032 RMK A01 T00090004  RH  097%=      5-min Rain = 0
KDC1 090606Z 29006KT 01/00 A3032 RMK A01 T00090004  RH  097%=      5-min Rain = 0
KDC1 090607Z 29006KT 01/00 A3032 RMK A01 T00090004  RH  097%=      5-min Rain = 0
KDC1 090608Z 29006KT 01/01 A3032 RMK A01 T00090005  RH  097%=      5-min Rain = 0
KDC1 090609Z 29006KT 01/00 A3032 RMK A01 T00090004  RH  097%=      5-min Rain = 0
KDC1 090610Z 29006KT 01/01 A3032 RMK A01 T00090005  RH  097%=      5-min Rain = 0
KDC1 090611Z 28005KT 01/01 A3032 RMK A01 T00090005  RH  097%=      5-min Rain = 0
KDC1 090612Z 28005KT 01/00 A3032 RMK A01 T00090004  RH  097%=      5-min Rain = 0
KDC1 090613Z 28006KT 01/00 A3032 RMK A01 T00090004  RH  097%=      5-min Rain = 0
KDC1 090614Z 28006KT 01/01 A3032 RMK A01 T00090005  RH  097%=      5-min Rain = 0
KDC1 090615Z 28006KT 01/01 A3032 RMK A01 T00090005  RH  097%=      5-min Rain = 0
KDC1 090616Z 28006KT 01/01 A3032 RMK A01 T00090005  RH  097%=      5-min Rain = 0
KDC1 090617Z 28006KT 01/01 A3032 RMK A01 T00090005  RH  097%=      5-min Rain = 0
KDC1 090618Z 27006KT 01/01 A3032 RMK A01 T00090005  RH  097%=      5-min Rain = 0
KDC1 090619Z 27006KT 01/01 A3032 RMK A01 T00090005  RH  097%=      5-min Rain = 0
KDC1 090620Z 27006KT 01/01 A3032 RMK A01 T00090005  RH  097%=      5-min Rain = 0
KDC1 090621Z 27006KT 01/01 A3032 RMK A01 T00090005  RH  097%=      5-min Rain = 0
KDC1 090622Z 28006KT 01/01 A3032 RMK A01 T00090005  RH  097%=      5-min Rain = 0
KDC1 090623Z 28006KT 01/01 A3032 RMK A01 T00090005  RH  097%=      5-min Rain = 0
KDC1 090624Z 28006KT 01/01 A3032 RMK A01 T00090005  RH  097%=      5-min Rain = 0
KDC1 090625Z 28006KT 01/01 A3032 RMK A01 T00090005  RH  097%=      5-min Rain = 0
KDC1 090626Z 28006KT 01/01 A3032 RMK A01 T00090005  RH  097%=      5-min Rain = 0
KDC1 090627Z 28006KT 01/01 A3032 RMK A01 T00090005  RH  097%=      5-min Rain = 0
KDC1 090628Z 29005KT 01/00 A3032 RMK A01 T00090004  RH  097%=      5-min Rain = 0
KDC1 090629Z 29005KT 01/01 A3032 RMK A01 T00090005  RH  097%=      5-min Rain = 0
KDC1 090630Z 29006KT 01/00 A3032 RMK A01 T00080004  RH  097%=      5-min Rain = 0
KDC1 090631Z 28006KT 01/00 A3032 RMK A01 T00080004  RH  097%=      5-min Rain = 0
KDC1 090632Z 29005KT 01/00 A3032 RMK A01 T00080004  RH  097%=      5-min Rain = 0
KDC1 090633Z 28005KT 01/00 A3032 RMK A01 T00080004  RH  097%=      5-min Rain = 0
KDC1 090634Z 28005KT 01/00 A3032 RMK A01 T00080004  RH  097%=      5-min Rain = 0
KDC1 090635Z 28005KT 01/00 A3032 RMK A01 T00080003  RH  097%=      5-min Rain = 0
KDC1 090636Z 29006KT 01/00 A3032 RMK A01 T00080003  RH  097%=      5-min Rain = 0
KDC1 090637Z 29006KT 01/00 A3032 RMK A01 T00080003  RH  097%=      5-min Rain = 0
KDC1 090638Z 29005KT 01/00 A3032 RMK A01 T00080004  RH  097%=      5-min Rain = 0
KDC1 090639Z 29006KT 01/00 A3032 RMK A01 T00080004  RH  097%=      5-min Rain = 0
KDC1 090640Z 29006KT 01/00 A3032 RMK A01 T00080003  RH  097%=      5-min Rain = 0
KDC1 090641Z 29006KT 01/00 A3032 RMK A01 T00080003  RH  097%=      5-min Rain = 0
KDC1 090642Z 29006KT 01/00 A3032 RMK A01 T00080003  RH  097%=      5-min Rain = 0
KDC1 090643Z 29007KT 01/00 A3032 RMK A01 T00080003  RH  097%=      5-min Rain = 0
KDC1 090644Z 29007KT 01/00 A3032 RMK A01 T00080004  RH  097%=      5-min Rain = 0
KDC1 090645Z 29007KT 01/00 A3032 RMK A01 T00080004  RH  097%=      5-min Rain = 0
KDC1 090646Z 29007KT 01/00 A3032 RMK A01 T00080004  RH  097%=      5-min Rain = 0
KDC1 090647Z 30007KT 01/00 A3032 RMK A01 T00080004  RH  097%=      5-min Rain = 0
KDC1 090648Z 30007KT 01/00 A3032 RMK A01 T00080004  RH  097%=      5-min Rain = 0
KDC1 090649Z 30007KT 01/00 A3032 RMK A01 T00080004  RH  097%=      5-min Rain = 0
KDC1 090650Z 31007KT 01/00 A3032 RMK A01 T00080004  RH  097%=      5-min Rain = 0
KDC1 090651Z 31007KT 01/00 A3032 RMK A01 T00080004  RH  097%=      5-min Rain = 0
KDC1 090652Z 31007KT 01/00 A3032 RMK A01 T00080004  RH  097%=      5-min Rain = 0
KDC1 090653Z 31007KT 01/00 A3032 RMK A01 T00080003  RH  097%=      5-min Rain = 0
KDC1 090654Z 31007KT 01/00 A3032 RMK A01 T00080004  RH  097%=      5-min Rain = 0
KDC1 090655Z 31007KT 01/00 A3032 RMK A01 T00080004  RH  097%=      5-min Rain = 0
KDC1 090656Z 31007KT 01/00 A3032 RMK A01 T00080003  RH  097%=      5-min Rain = 0
KDC1 090657Z 31007KT 01/00 A3032 RMK A01 T00080003  RH  097%=      5-min Rain = 0
KDC1 090658Z 31007KT 01/00 A3032 RMK A01 T00090004  RH  097%=      5-min Rain = 0
KDC1 090659Z 31007KT 01/00 A3032 RMK A01 T00080004  RH  097%=      5-min Rain = 0
KDC1 090700Z 31007KT 01/00 A3032 RMK A01 T00080004  RH  097%=      5-min Rain = 0
KDC1 090701Z 30007KT 01/00 A3032 RMK A01 T00080004  RH  097%=      5-min Rain = 0
KDC1 090702Z 30007KT 01/00 A3032 RMK A01 T00080004  RH  097%=      5-min Rain = 0
KDC1 090703Z 31007KT 01/00 A3032 RMK A01 T00080004  RH  097%=      5-min Rain = 0
KDC1 090704Z 31007KT 01/00 A3032 RMK A01 T00090004  RH  097%=      5-min Rain = 0
KDC1 090705Z 31007KT 01/01 A3032 RMK A01 T00090005  RH  097%=      5-min Rain = 0
KDC1 090706Z 31007KT 01/01 A3032 RMK A01 T00100005  RH  097%=      5-min Rain = 0
KDC1 090707Z 31007KT 01/01 A3032 RMK A01 T00100006  RH  097%=      5-min Rain = 0
KDC1 090708Z 31007KT 01/01 A3032 RMK A01 T00100006  RH  097%=      5-min Rain = 0
KDC1 090709Z 31007KT 01/01 A3032 RMK A01 T00100006  RH  097%=      5-min Rain = 0
KDC1 090710Z 31007KT 01/01 A3032 RMK A01 T00100006  RH  097%=      5-min Rain = 0
KDC1 090711Z 31007KT 01/01 A3032 RMK A01 T00110006  RH  097%=      5-min Rain = 0
KDC1 090712Z 31007KT 01/01 A3032 RMK A01 T00110006  RH  097%=      5-min Rain = 0
KDC1 090713Z 30007KT 01/01 A3032 RMK A01 T00110006  RH  097%=      5-min Rain = 0
KDC1 090714Z 30006KT 01/01 A3032 RMK A01 T00110006  RH  097%=      5-min Rain = 0
KDC1 090715Z 30007KT 01/01 A3032 RMK A01 T00110006  RH  097%=      5-min Rain = 0
KDC1 090716Z 30006KT 01/01 A3032 RMK A01 T00110006  RH  097%=      5-min Rain = 0
KDC1 090717Z 31006KT 01/01 A3032 RMK A01 T00110007  RH  097%=      5-min Rain = 0
KDC1 090718Z 31006KT 01/01 A3032 RMK A01 T00110006  RH  097%=      5-min Rain = 0
KDC1 090719Z 31006KT 01/01 A3032 RMK A01 T00110007  RH  097%=      5-min Rain = 0
KDC1 090720Z 31005KT 01/01 A3032 RMK A01 T00120007  RH  097%=      5-min Rain = 0
KDC1 090721Z 30005KT 01/01 A3032 RMK A01 T00120007  RH  097%=      5-min Rain = 0
KDC1 090722Z 30006KT 01/01 A3032 RMK A01 T00120007  RH  097%=      5-min Rain = 0
KDC1 090723Z 30005KT 01/01 A3032 RMK A01 T00110006  RH  097%=      5-min Rain = 0
KDC1 090724Z 29005KT 01/01 A3031 RMK A01 T00110006  RH  097%=      5-min Rain = 0
KDC1 090725Z 29005KT 01/01 A3031 RMK A01 T00110006  RH  097%=      5-min Rain = 0
KDC1 090726Z 28005KT 01/01 A3031 RMK A01 T00110006  RH  097%=      5-min Rain = 0
KDC1 090727Z 28005KT 01/01 A3031 RMK A01 T00110006  RH  097%=      5-min Rain = 0
KDC1 090728Z 28005KT 01/01 A3031 RMK A01 T00110006  RH  097%=      5-min Rain = 0
KDC1 090729Z 28005KT 01/01 A3031 RMK A01 T00110006  RH  097%=      5-min Rain = 0
KDC1 090730Z 28005KT 01/01 A3031 RMK A01 T00110006  RH  097%=      5-min Rain = 0
KDC1 090731Z 29006KT 01/01 A3031 RMK A01 T00110006  RH  097%=      5-min Rain = 0
KDC1 090732Z 29006KT 01/01 A3031 RMK A01 T00110006  RH  097%=      5-min Rain = 0
KDC1 090733Z 29006KT 01/01 A3031 RMK A01 T00110007  RH  097%=      5-min Rain = 0
KDC1 090734Z 29006KT 01/01 A3031 RMK A01 T00110006  RH  097%=      5-min Rain = 0
KDC1 090735Z 30006KT 01/01 A3031 RMK A01 T00110006  RH  097%=      5-min Rain = 0
KDC1 090736Z 30006KT 01/01 A3031 RMK A01 T00100006  RH  097%=      5-min Rain = 0
KDC1 090737Z 30006KT 01/01 A3031 RMK A01 T00100006  RH  097%=      5-min Rain = 0
KDC1 090738Z 30006KT 01/01 A3031 RMK A01 T00100005  RH  096%=      5-min Rain = 0
KDC1 090739Z 30006KT 01/01 A3031 RMK A01 T00100005  RH  096%=      5-min Rain = 0
KDC1 090740Z 30005KT 01/01 A3031 RMK A01 T00100005  RH  096%=      5-min Rain = 0
KDC1 090741Z 30005KT 01/01 A3031 RMK A01 T00100005  RH  096%=      5-min Rain = 0
KDC1 090742Z 30005KT 01/01 A3031 RMK A01 T00100005  RH  096%=      5-min Rain = 0
KDC1 090743Z 30004KT 01/00 A3031 RMK A01 T00100004  RH  096%=      5-min Rain = 0
KDC1 090744Z 30004KT 01/00 A3031 RMK A01 T00090004  RH  096%=      5-min Rain = 0
KDC1 090745Z 29003KT 01/00 A3031 RMK A01 T00090004  RH  096%=      5-min Rain = 0
KDC1 090746Z 27004KT 01/00 A3031 RMK A01 T00090003  RH  096%=      5-min Rain = 0
KDC1 090747Z 27004KT 01/00 A3031 RMK A01 T00080003  RH  096%=      5-min Rain = 0
KDC1 090748Z 27004KT 01/00 A3031 RMK A01 T00080003  RH  096%=      5-min Rain = 0
KDC1 090749Z 28004KT 01/00 A3031 RMK A01 T00080004  RH  097%=      5-min Rain = 0
KDC1 090750Z 29004KT 01/00 A3031 RMK A01 T00080004  RH  097%=      5-min Rain = 0
KDC1 090751Z 30004KT 01/00 A3031 RMK A01 T00080003  RH  097%=      5-min Rain = 0
KDC1 090752Z 30004KT 01/00 A3031 RMK A01 T00080003  RH  096%=      5-min Rain = 0
KDC1 090753Z 30004KT 01/00 A3031 RMK A01 T00070002  RH  096%=      5-min Rain = 0
KDC1 090754Z 29004KT 01/00 A3031 RMK A01 T00070002  RH  097%=      5-min Rain = 0
KDC1 090755Z 29004KT 01/00 A3031 RMK A01 T00070002  RH  096%=      5-min Rain = 0
KDC1 090756Z 29004KT 01/00 A3031 RMK A01 T00070002  RH  096%=      5-min Rain = 0
KDC1 090757Z 28004KT 01/00 A3031 RMK A01 T00070002  RH  097%=      5-min Rain = 0
KDC1 090758Z 28004KT 01/00 A3031 RMK A01 T00070002  RH  097%=      5-min Rain = 0
KDC1 090759Z 28004KT 01/00 A3031 RMK A01 T00060001  RH  097%=      5-min Rain = 0
KDC1 090800Z 27004KT 01/00 A3031 RMK A01 T00060001  RH  097%=      5-min Rain = 0
KDC1 090801Z 27004KT 01/00 A3031 RMK A01 T00060001  RH  097%=      5-min Rain = 0
KDC1 090802Z 27005KT 01/00 A3031 RMK A01 T00060002  RH  097%=      5-min Rain = 0
KDC1 090803Z 27006KT 01/00 A3031 RMK A01 T00060002  RH  097%=      5-min Rain = 0
KDC1 090804Z 28006KT 01/00 A3031 RMK A01 T00070002  RH  097%=      5-min Rain = 0
KDC1 090805Z 28006KT 01/00 A3031 RMK A01 T00070002  RH  097%=      5-min Rain = 0
KDC1 090806Z 28006KT 01/00 A3031 RMK A01 T00060001  RH  097%=      5-min Rain = 0
KDC1 090807Z 28006KT 01/00 A3031 RMK A01 T00060001  RH  097%=      5-min Rain = 0
KDC1 090808Z 28006KT 01/00 A3031 RMK A01 T00050001  RH  097%=      5-min Rain = 0
KDC1 090809Z 28007KT 01/00 A3031 RMK A01 T00060001  RH  097%=      5-min Rain = 0
KDC1 090810Z 28006KT 01/00 A3031 RMK A01 T00050001  RH  097%=      5-min Rain = 0
KDC1 090811Z 28007KT 01/00 A3031 RMK A01 T00060001  RH  097%=      5-min Rain = 0
KDC1 090812Z 28007KT 01/00 A3031 RMK A01 T00060001  RH  097%=      5-min Rain = 0
KDC1 090813Z 28007KT 01/00 A3031 RMK A01 T00060001  RH  097%=      5-min Rain = 0
KDC1 090814Z 28007KT 01/00 A3031 RMK A01 T00060002  RH  097%=      5-min Rain = 0
KDC1 090815Z 28007KT 01/00 A3031 RMK A01 T00070002  RH  097%=      5-min Rain = 0
KDC1 090816Z 28007KT 01/00 A3031 RMK A01 T00070003  RH  097%=      5-min Rain = 0
KDC1 090817Z 28007KT 01/00 A3031 RMK A01 T00080004  RH  097%=      5-min Rain = 0
KDC1 090818Z 28007KT 01/00 A3031 RMK A01 T00080004  RH  097%=      5-min Rain = 0
KDC1 090819Z 28006KT 01/00 A3031 RMK A01 T00080004  RH  097%=      5-min Rain = 0
KDC1 090820Z 28006KT 01/00 A3031 RMK A01 T00090004  RH  097%=      5-min Rain = 0
KDC1 090821Z 28006KT 01/00 A3031 RMK A01 T00090004  RH  097%=      5-min Rain = 0
KDC1 090822Z 28006KT 01/00 A3031 RMK A01 T00090004  RH  097%=      5-min Rain = 0
KDC1 090823Z 28006KT 01/01 A3031 RMK A01 T00090005  RH  097%=      5-min Rain = 0
KDC1 090824Z 28006KT 01/01 A3031 RMK A01 T00100005  RH  097%=      5-min Rain = 0
KDC1 090825Z 28006KT 01/01 A3031 RMK A01 T00100005  RH  097%=      5-min Rain = 0
KDC1 090826Z 28006KT 01/01 A3031 RMK A01 T00100005  RH  097%=      5-min Rain = 0
KDC1 090827Z 28007KT 01/01 A3031 RMK A01 T00100005  RH  097%=      5-min Rain = 0
KDC1 090828Z 28007KT 01/01 A3031 RMK A01 T00100005  RH  097%=      5-min Rain = 0
KDC1 090829Z 28007KT 01/01 A3031 RMK A01 T00100005  RH  097%=      5-min Rain = 0
KDC1 090830Z 28007KT 01/01 A3031 RMK A01 T00100005  RH  097%=      5-min Rain = 0
KDC1 090831Z 27007KT 01/01 A3031 RMK A01 T00100006  RH  097%=      5-min Rain = 0
KDC1 090832Z 28007KT 01/01 A3031 RMK A01 T00110006  RH  097%=      5-min Rain = 0
KDC1 090833Z 28007KT 01/01 A3031 RMK A01 T00110007  RH  097%=      5-min Rain = 0
KDC1 090834Z 28007KT 01/01 A3031 RMK A01 T00120007  RH  097%=      5-min Rain = 0
KDC1 090835Z 28006KT 01/01 A3031 RMK A01 T00120007  RH  097%=      5-min Rain = 0
KDC1 090836Z 28006KT 01/01 A3031 RMK A01 T00120007  RH  096%=      5-min Rain = 0
KDC1 090837Z 29007KT 01/01 A3031 RMK A01 T00120006  RH  096%=      5-min Rain = 0
KDC1 090838Z 29006KT 01/01 A3031 RMK A01 T00120006  RH  096%=      5-min Rain = 0
KDC1 090839Z 29006KT 01/01 A3031 RMK A01 T00120007  RH  096%=      5-min Rain = 0
KDC1 090840Z 29006KT 01/01 A3031 RMK A01 T00120007  RH  096%=      5-min Rain = 0
KDC1 090841Z 28006KT 01/01 A303 RMK A01 T00120007  RH  096%=      5-min Rain = 0
KDC1 090842Z 28007KT 01/01 A303 RMK A01 T00120006  RH  096%=      5-min Rain = 0
KDC1 090843Z 28006KT 01/01 A303 RMK A01 T00120006  RH  096%=      5-min Rain = 0
KDC1 090844Z 27006KT 01/01 A303 RMK A01 T00110005  RH  096%=      5-min Rain = 0
KDC1 090845Z 27006KT 01/01 A303 RMK A01 T00110005  RH  096%=      5-min Rain = 0
KDC1 090846Z 26005KT 01/01 A303 RMK A01 T00110005  RH  096%=      5-min Rain = 0
KDC1 090847Z 26005KT 01/01 A303 RMK A01 T00100005  RH  096%=      5-min Rain = 0
KDC1 090848Z 27005KT 01/01 A303 RMK A01 T00110005  RH  096%=      5-min Rain = 0
KDC1 090849Z 27006KT 01/01 A303 RMK A01 T00100005  RH  096%=      5-min Rain = 0
KDC1 090850Z 28006KT 01/01 A303 RMK A01 T00100005  RH  096%=      5-min Rain = 0
KDC1 090851Z 28006KT 01/00 A303 RMK A01 T00090004  RH  096%=      5-min Rain = 0
KDC1 090852Z 28006KT 01/00 A303 RMK A01 T00080002  RH  096%=      5-min Rain = 0
KDC1 090853Z 28005KT 01/00 A303 RMK A01 T00080002  RH  096%=      5-min Rain = 0
KDC1 090854Z 28005KT 01/00 A303 RMK A01 T00070001  RH  096%=      5-min Rain = 0
KDC1 090855Z 28005KT 01/00 A303 RMK A01 T00060001  RH  096%=      5-min Rain = 0
KDC1 090856Z 28005KT 01/00 A303 RMK A01 T00060001  RH  096%=      5-min Rain = 0
KDC1 090857Z 28005KT 01/00 A303 RMK A01 T00060001  RH  096%=      5-min Rain = 0
KDC1 090858Z 28005KT 01/00 A303 RMK A01 T00060001  RH  097%=      5-min Rain = 0
KDC1 090859Z 28005KT 01/00 A303 RMK A01 T00060001  RH  097%=      5-min Rain = 0
KDC1 090900Z 29005KT 01/00 A3031 RMK A01 T00060001  RH  097%=      5-min Rain = 0
KDC1 090901Z 29005KT 01/00 A3031 RMK A01 T00060001  RH  097%=      5-min Rain = 0
KDC1 090902Z 29005KT 01/00 A3031 RMK A01 T00060002  RH  097%=      5-min Rain = 0
KDC1 090903Z 29005KT 01/00 A3031 RMK A01 T00060001  RH  097%=      5-min Rain = 0
KDC1 090904Z 29004KT 01/00 A3031 RMK A01 T00060002  RH  097%=      5-min Rain = 0
KDC1 090905Z 29004KT 01/00 A3031 RMK A01 T00060002  RH  097%=      5-min Rain = 0
KDC1 090906Z 29004KT 01/00 A3031 RMK A01 T00060002  RH  097%=      5-min Rain = 0
KDC1 090907Z 28004KT 01/00 A3031 RMK A01 T00070002  RH  097%=      5-min Rain = 0
KDC1 090908Z 29004KT 01/00 A3031 RMK A01 T00060002  RH  097%=      5-min Rain = 0
KDC1 090909Z 29004KT 01/00 A3031 RMK A01 T00060002  RH  097%=      5-min Rain = 0
KDC1 090910Z 29005KT 01/00 A3031 RMK A01 T00070002  RH  097%=      5-min Rain = 0
KDC1 090911Z 31004KT 01/00 A3031 RMK A01 T00070002  RH  097%=      5-min Rain = 0
KDC1 090912Z 01004KT 01/00 A3031 RMK A01 T00060002  RH  097%=      5-min Rain = 0
KDC1 090913Z 01005KT 01/00 A3031 RMK A01 T00070002  RH  097%=      5-min Rain = 0
KDC1 090914Z 35004KT 01/00 A3031 RMK A01 T00060002  RH  097%=      5-min Rain = 0
KDC1 090915Z 01004KT 01/00 A3031 RMK A01 T00060002  RH  097%=      5-min Rain = 0
KDC1 090916Z 36004KT 01/00 A3031 RMK A01 T00070003  RH  097%=      5-min Rain = 0
KDC1 090917Z 33005KT 01/00 A3031 RMK A01 T00060002  RH  097%=      5-min Rain = 0
KDC1 090918Z 33004KT 01/00 A3031 RMK A01 T00060002  RH  097%=      5-min Rain = 0
KDC1 090919Z 33004KT 01/00 A3031 RMK A01 T00060002  RH  097%=      5-min Rain = 0
KDC1 090920Z 32004KT 01/00 A3031 RMK A01 T00070003  RH  097%=      5-min Rain = 0
KDC1 090921Z 31005KT 01/00 A3031 RMK A01 T00070003  RH  097%=      5-min Rain = 0
KDC1 090922Z 31005KT 01/00 A3031 RMK A01 T00070003  RH  097%=      5-min Rain = 0
KDC1 090923Z 32005KT 01/00 A3031 RMK A01 T00070003  RH  097%=      5-min Rain = 0
KDC1 090924Z 32005KT 01/00 A3031 RMK A01 T00070003  RH  097%=      5-min Rain = 0
KDC1 090925Z 31005KT 01/00 A3031 RMK A01 T00070003  RH  097%=      5-min Rain = 0
KDC1 090926Z 32005KT 01/00 A3031 RMK A01 T00080003  RH  097%=      5-min Rain = 0
KDC1 090927Z 31005KT 01/00 A3031 RMK A01 T00080004  RH  097%=      5-min Rain = 0
KDC1 090928Z 31005KT 01/00 A3031 RMK A01 T00080003  RH  097%=      5-min Rain = 0
KDC1 090929Z 31005KT 01/00 A3031 RMK A01 T00080003  RH  097%=      5-min Rain = 0
KDC1 090930Z 31005KT 01/00 A3031 RMK A01 T00080003  RH  097%=      5-min Rain = 0
KDC1 090931Z 32006KT 01/00 A3031 RMK A01 T00070003  RH  097%=      5-min Rain = 0
KDC1 090932Z 32005KT 01/00 A3031 RMK A01 T00070003  RH  097%=      5-min Rain = 0
KDC1 090933Z 33004KT 01/00 A3031 RMK A01 T00070003  RH  097%=      5-min Rain = 0
KDC1 090934Z 34004KT 01/00 A3031 RMK A01 T00070003  RH  097%=      5-min Rain = 0
KDC1 090935Z 34004KT 01/00 A3031 RMK A01 T00070002  RH  097%=      5-min Rain = 0
KDC1 090936Z 34004KT 01/00 A3031 RMK A01 T00060002  RH  097%=      5-min Rain = 0
KDC1 090937Z 35004KT 01/00 A3031 RMK A01 T00060001  RH  097%=      5-min Rain = 0
KDC1 090938Z 35004KT 01/00 A3031 RMK A01 T00050001  RH  097%=      5-min Rain = 0
KDC1 090939Z 34004KT 01/00 A3031 RMK A01 T00050000  RH  097%=      5-min Rain = 0
KDC1 090940Z 35003KT 00/00 A3031 RMK A01 T000400-0  RH  097%=      5-min Rain = 0
KDC1 090941Z 35004KT 00/00 A3031 RMK A01 T000400-0  RH  097%=      5-min Rain = 0
KDC1 090942Z 34003KT 00/00 A3031 RMK A01 T00040000  RH  097%=      5-min Rain = 0
KDC1 090943Z 34003KT 00/00 A3031 RMK A01 T00040000  RH  097%=      5-min Rain = 0
KDC1 090944Z 32003KT 00/00 A3031 RMK A01 T00040000  RH  097%=      5-min Rain = 0
KDC1 090945Z 31002KT 00/M00 A3031 RMK A01 T00031001  RH  097%=      5-min Rain = 0
KDC1 090946Z 33002KT 00/M00 A3031 RMK A01 T00031001  RH  097%=      5-min Rain = 0
KDC1 090947Z 34002KT 00/M00 A3031 RMK A01 T00021002  RH  097%=      5-min Rain = 0
KDC1 090948Z 33001KT 00/M00 A3031 RMK A01 T00021002  RH  097%=      5-min Rain = 0
KDC1 090949Z 34001KT 00/M00 A3031 RMK A01 T00021002  RH  097%=      5-min Rain = 0
KDC1 090950Z 34002KT 00/M00 A3031 RMK A01 T00021002  RH  097%=      5-min Rain = 0
KDC1 090951Z 29002KT 00/M00 A3031 RMK A01 T00021002  RH  097%=      5-min Rain = 0
KDC1 090952Z 27004KT 00/M00 A3031 RMK A01 T00011002  RH  097%=      5-min Rain = 0
KDC1 090953Z 29003KT 00/M00 A3031 RMK A01 T00021001  RH  098%=      5-min Rain = 0
KDC1 090954Z 28002KT 00/00 A3031 RMK A01 T000300-0  RH  098%=      5-min Rain = 0
KDC1 090955Z 28003KT 00/00 A3031 RMK A01 T000300-0  RH  098%=      5-min Rain = 0
KDC1 090956Z 28004KT 00/00 A3031 RMK A01 T000300-0  RH  098%=      5-min Rain = 0
KDC1 090957Z 30003KT 00/00 A3031 RMK A01 T00030000  RH  098%=      5-min Rain = 0
KDC1 090958Z 30002KT 00/00 A3031 RMK A01 T00040000  RH  098%=      5-min Rain = 0
KDC1 090959Z 29003KT 00/00 A3031 RMK A01 T00040001  RH  098%=      5-min Rain = 0
KDC1 091000Z 29002KT 00/00 A3031 RMK A01 T00040000  RH  098%=      5-min Rain = 0
KDC1 091001Z 29002KT 00/00 A3031 RMK A01 T000300-0  RH  098%=      5-min Rain = 0
KDC1 091002Z 29003KT 00/00 A3031 RMK A01 T000300-0  RH  098%=      5-min Rain = 0
KDC1 091003Z 30003KT 00/M00 A3031 RMK A01 T00031001  RH  098%=      5-min Rain = 0
KDC1 091004Z 31003KT 00/M00 A3031 RMK A01 T00031001  RH  098%=      5-min Rain = 0
KDC1 091005Z 30002KT 00/M00 A3031 RMK A01 T00031001  RH  098%=      5-min Rain = 0
KDC1 091006Z 30001KT 00/M00 A3031 RMK A01 T00031001  RH  098%=      5-min Rain = 0
KDC1 091007Z 35001KT 00/M00 A3031 RMK A01 T00031001  RH  098%=      5-min Rain = 0
KDC1 091008Z 02002KT 00/00 A3031 RMK A01 T000300-0  RH  098%=      5-min Rain = 0
KDC1 091009Z 34001KT 00/00 A3031 RMK A01 T00040000  RH  098%=      5-min Rain = 0
KDC1 091010Z 29003KT 00/00 A3031 RMK A01 T00040001  RH  098%=      5-min Rain = 0
KDC1 091011Z 29002KT 00/00 A3031 RMK A01 T00040001  RH  098%=      5-min Rain = 0
KDC1 091012Z 36001KT 00/00 A3031 RMK A01 T00040001  RH  098%=      5-min Rain = 0
KDC1 091013Z 04001KT 00/00 A3031 RMK A01 T00040001  RH  098%=      5-min Rain = 0
KDC1 091014Z 00000KT 01/00 A3031 RMK A01 T00050002  RH  098%=      5-min Rain = 0
KDC1 091015Z 02000KT 01/00 A3031 RMK A01 T00050002  RH  098%=      5-min Rain = 0
KDC1 091016Z 36001KT 01/00 A3031 RMK A01 T00050002  RH  098%=      5-min Rain = 0
KDC1 091017Z 35001KT 01/00 A3031 RMK A01 T00050002  RH  098%=      5-min Rain = 0
KDC1 091018Z 00001KT 01/00 A3031 RMK A01 T00050002  RH  098%=      5-min Rain = 0
KDC1 091019Z 02002KT 01/00 A3031 RMK A01 T00050002  RH  098%=      5-min Rain = 0
KDC1 091020Z 03004KT 01/00 A3031 RMK A01 T00050002  RH  098%=      5-min Rain = 0
KDC1 091021Z 01002KT 01/00 A303 RMK A01 T00060003  RH  098%=      5-min Rain = 0
KDC1 091022Z 36002KT 01/00 A3031 RMK A01 T00060003  RH  098%=      5-min Rain = 0
KDC1 091023Z 00002KT 01/00 A303 RMK A01 T00070004  RH  098%=      5-min Rain = 0
KDC1 091024Z 35002KT 01/00 A303 RMK A01 T00070004  RH  098%=      5-min Rain = 0
KDC1 091025Z 34002KT 01/01 A303 RMK A01 T00080005  RH  098%=      5-min Rain = 0
KDC1 091026Z 35002KT 01/01 A303 RMK A01 T00080006  RH  098%=      5-min Rain = 0
KDC1 091027Z 00003KT 01/01 A303 RMK A01 T00090006  RH  098%=      5-min Rain = 0
KDC1 091028Z 01002KT 01/01 A303 RMK A01 T00090007  RH  098%=      5-min Rain = 0
KDC1 091029Z 01001KT 01/01 A303 RMK A01 T00100007  RH  098%=      5-min Rain = 0
KDC1 091030Z 00001KT 01/01 A303 RMK A01 T00100008  RH  098%=      5-min Rain = 0
KDC1 091031Z 00002KT 01/01 A303 RMK A01 T00110008  RH  098%=      5-min Rain = 0
KDC1 091032Z 34001KT 01/01 A303 RMK A01 T00110009  RH  098%=      5-min Rain = 0
KDC1 091033Z 32001KT 01/01 A303 RMK A01 T00120009  RH  098%=      5-min Rain = 0
KDC1 091034Z 32001KT 01/01 A3031 RMK A01 T00120009  RH  098%=      5-min Rain = 0
KDC1 091035Z 33001KT 01/01 A3031 RMK A01 T00120009  RH  098%=      5-min Rain = 0
KDC1 091036Z 33001KT 01/01 A3031 RMK A01 T00120009  RH  098%=      5-min Rain = 0
KDC1 091037Z 33000KT 01/01 A3031 RMK A01 T00120010  RH  098%=      5-min Rain = 0
KDC1 091038Z 00000KT 01/01 A3031 RMK A01 T00130010  RH  098%=      5-min Rain = 0
KDC1 091039Z 00000KT 01/01 A3031 RMK A01 T00130010  RH  098%=      5-min Rain = 0
KDC1 091040Z 00000KT 01/01 A3031 RMK A01 T00140011  RH  098%=      5-min Rain = 0
KDC1 091041Z 00000KT 01/01 A3031 RMK A01 T00140011  RH  098%=      5-min Rain = 0
KDC1 091042Z 00000KT 01/01 A3031 RMK A01 T00140012  RH  098%=      5-min Rain = 0
KDC1 091043Z 32000KT 02/01 A3031 RMK A01 T00150012  RH  098%=      5-min Rain = 0
KDC1 091044Z 32000KT 02/01 A3031 RMK A01 T00150012  RH  098%=      5-min Rain = 0
KDC1 091045Z 33001KT 02/01 A3031 RMK A01 T00150011  RH  098%=      5-min Rain = 0
KDC1 091046Z 33001KT 02/01 A3031 RMK A01 T00150012  RH  098%=      5-min Rain = 0
KDC1 091047Z 32001KT 02/01 A3031 RMK A01 T00150012  RH  098%=      5-min Rain = 0
KDC1 091048Z 33001KT 02/01 A3031 RMK A01 T00170013  RH  098%=      5-min Rain = 0
KDC1 091049Z 35001KT 02/01 A3031 RMK A01 T00170014  RH  098%=      5-min Rain = 0
KDC1 091050Z 02001KT 02/02 A3031 RMK A01 T00180015  RH  098%=      5-min Rain = 0
KDC1 091051Z 00001KT 02/02 A3031 RMK A01 T00180015  RH  098%=      5-min Rain = 0
KDC1 091052Z 34002KT 02/02 A3031 RMK A01 T00190015  RH  097%=      5-min Rain = 0
KDC1 091053Z 35002KT 02/02 A3031 RMK A01 T00190016  RH  097%=      5-min Rain = 0
KDC1 091054Z 36002KT 02/02 A3031 RMK A01 T00200016  RH  097%=      5-min Rain = 0
KDC1 091055Z 35001KT 02/02 A3031 RMK A01 T00200016  RH  097%=      5-min Rain = 0
KDC1 091056Z 34001KT 02/02 A3031 RMK A01 T00200016  RH  097%=      5-min Rain = 0
KDC1 091057Z 33001KT 02/02 A3031 RMK A01 T00210016  RH  097%=      5-min Rain = 0
KDC1 091058Z 33001KT 02/02 A3031 RMK A01 T00200016  RH  097%=      5-min Rain = 0
KDC1 091059Z 31002KT 02/02 A3031 RMK A01 T00210016  RH  097%=      5-min Rain = 0
KDC1 091100Z 30002KT 02/02 A3031 RMK A01 T00210016  RH  097%=      5-min Rain = 0
KDC1 091101Z 31002KT 02/02 A3031 RMK A01 T00210016  RH  096%=      5-min Rain = 0
KDC1 091102Z 32002KT 02/02 A3031 RMK A01 T00210015  RH  096%=      5-min Rain = 0
KDC1 091103Z 33002KT 02/02 A3031 RMK A01 T00210016  RH  096%=      5-min Rain = 0
KDC1 091104Z 35001KT 02/02 A3031 RMK A01 T00210016  RH  097%=      5-min Rain = 0
KDC1 091105Z 01001KT 02/02 A3031 RMK A01 T00220017  RH  097%=      5-min Rain = 0
KDC1 091106Z 02001KT 02/02 A3031 RMK A01 T00220017  RH  097%=      5-min Rain = 0
KDC1 091107Z 02001KT 02/02 A3031 RMK A01 T00220017  RH  096%=      5-min Rain = 0
KDC1 091108Z 03001KT 02/02 A3031 RMK A01 T00220016  RH  096%=      5-min Rain = 0
KDC1 091109Z 03001KT 02/02 A3031 RMK A01 T00210016  RH  096%=      5-min Rain = 0
KDC1 091110Z 03001KT 02/02 A3031 RMK A01 T00220016  RH  096%=      5-min Rain = 0
KDC1 091111Z 03001KT 02/02 A3031 RMK A01 T00210016  RH  096%=      5-min Rain = 0
KDC1 091112Z 04002KT 02/02 A3031 RMK A01 T00210016  RH  096%=      5-min Rain = 0
KDC1 091113Z 06002KT 02/02 A3031 RMK A01 T00210016  RH  096%=      5-min Rain = 0
KDC1 091114Z 07001KT 02/02 A3031 RMK A01 T00220016  RH  096%=      5-min Rain = 0
KDC1 091115Z 09001KT 02/02 A3031 RMK A01 T00210016  RH  096%=      5-min Rain = 0
KDC1 091116Z 10000KT 02/02 A3031 RMK A01 T00220016  RH  096%=      5-min Rain = 0
KDC1 091117Z 12000KT 02/02 A3031 RMK A01 T00220016  RH  096%=      5-min Rain = 0
KDC1 091118Z 08000KT 02/02 A3031 RMK A01 T00220016  RH  096%=      5-min Rain = 0
KDC1 091119Z 06001KT 02/02 A3031 RMK A01 T00220016  RH  096%=      5-min Rain = 0
KDC1 091120Z 04000KT 02/02 A3031 RMK A01 T00220016  RH  096%=      5-min Rain = 0
KDC1 091121Z 00000KT 02/02 A3031 RMK A01 T00210016  RH  096%=      5-min Rain = 0
KDC1 091122Z 00000KT 02/02 A3031 RMK A01 T00220016  RH  096%=      5-min Rain = 0
KDC1 091123Z 00000KT 02/02 A3031 RMK A01 T00220016  RH  096%=      5-min Rain = 0
KDC1 091124Z 00000KT 02/02 A3031 RMK A01 T00210016  RH  096%=      5-min Rain = 0
KDC1 091125Z 00000KT 02/02 A3031 RMK A01 T00210016  RH  096%=      5-min Rain = 0
KDC1 091126Z 13000KT 02/02 A3031 RMK A01 T00210016  RH  096%=      5-min Rain = 0
KDC1 091127Z 14000KT 02/02 A3031 RMK A01 T00210016  RH  096%=      5-min Rain = 0
KDC1 091128Z 00000KT 02/02 A3031 RMK A01 T00210016  RH  096%=      5-min Rain = 0
KDC1 091129Z 10000KT 02/02 A3031 RMK A01 T00200015  RH  096%=      5-min Rain = 0
KDC1 091130Z 09001KT 02/01 A3031 RMK A01 T00200014  RH  096%=      5-min Rain = 0
KDC1 091131Z 08001KT 02/02 A3031 RMK A01 T00200015  RH  096%=      5-min Rain = 0
KDC1 091132Z 07001KT 02/02 A3031 RMK A01 T00200015  RH  097%=      5-min Rain = 0
KDC1 091133Z 07002KT 02/02 A3031 RMK A01 T00200015  RH  097%=      5-min Rain = 0
KDC1 091134Z 07003KT 02/02 A3031 RMK A01 T00200015  RH  097%=      5-min Rain = 0
KDC1 091135Z 08004KT 02/02 A3031 RMK A01 T00200015  RH  097%=      5-min Rain = 0
KDC1 091136Z 08004KT 02/01 A3031 RMK A01 T00180014  RH  097%=      5-min Rain = 0
KDC1 091137Z 08003KT 02/01 A3031 RMK A01 T00170012  RH  097%=      5-min Rain = 0
KDC1 091138Z 07003KT 01/01 A3032 RMK A01 T00140009  RH  096%=      5-min Rain = 0
KDC1 091139Z 06003KT 01/01 A3032 RMK A01 T00120006  RH  096%=      5-min Rain = 0
KDC1 091140Z 05003KT 01/01 A3032 RMK A01 T00100005  RH  096%=      5-min Rain = 0
KDC1 091141Z 04003KT 01/00 A3032 RMK A01 T00090004  RH  096%=      5-min Rain = 0
KDC1 091142Z 04003KT 01/00 A3032 RMK A01 T00080003  RH  096%=      5-min Rain = 0
KDC1 091143Z 04002KT 01/00 A3032 RMK A01 T00080003  RH  097%=      5-min Rain = 0
KDC1 091144Z 06002KT 01/00 A3032 RMK A01 T00070003  RH  097%=      5-min Rain = 0
KDC1 091145Z 06001KT 01/00 A3032 RMK A01 T00070003  RH  097%=      5-min Rain = 0
KDC1 091146Z 00000KT 01/00 A3032 RMK A01 T00070002  RH  097%=      5-min Rain = 0
KDC1 091147Z 35000KT 01/00 A3032 RMK A01 T00060002  RH  097%=      5-min Rain = 0
KDC1 091148Z 35001KT 01/00 A3032 RMK A01 T00060002  RH  097%=      5-min Rain = 0
KDC1 091149Z 00000KT 01/00 A3032 RMK A01 T00070003  RH  097%=      5-min Rain = 0
KDC1 091150Z 31001KT 01/00 A3032 RMK A01 T00070003  RH  097%=      5-min Rain = 0
KDC1 091151Z 30002KT 01/00 A3032 RMK A01 T00060003  RH  098%=      5-min Rain = 0
KDC1 091152Z 28002KT 01/00 A3032 RMK A01 T00070003  RH  098%=      5-min Rain = 0
KDC1 091153Z 26002KT 01/00 A3032 RMK A01 T00070003  RH  098%=      5-min Rain = 0
KDC1 091154Z 27002KT 01/00 A3032 RMK A01 T00070003  RH  098%=      5-min Rain = 0
KDC1 091155Z 28002KT 01/00 A3032 RMK A01 T00060003  RH  098%=      5-min Rain = 0
KDC1 091156Z 28002KT 01/00 A3032 RMK A01 T00060003  RH  098%=      5-min Rain = 0
KDC1 091157Z 27002KT 01/00 A3032 RMK A01 T00050002  RH  098%=      5-min Rain = 0
KDC1 091158Z 26002KT 01/00 A3032 RMK A01 T00050002  RH  098%=      5-min Rain = 0
KDC1 091159Z 26003KT 01/00 A3032 RMK A01 T00050002  RH  098%=      5-min Rain = 0
KDC1 091200Z 26003KT 01/00 A3032 RMK A01 T00050002  RH  098%=      5-min Rain = 0
KDC1 091201Z 25002KT 01/00 A3032 RMK A01 T00060003  RH  098%=      5-min Rain = 0
KDC1 091202Z 27002KT 01/00 A3032 RMK A01 T00060004  RH  098%=      5-min Rain = 0
KDC1 091203Z 27002KT 01/00 A3032 RMK A01 T00060004  RH  098%=      5-min Rain = 0
KDC1 091204Z 26002KT 01/00 A3032 RMK A01 T00060004  RH  098%=      5-min Rain = 0
KDC1 091205Z 27002KT 01/00 A3032 RMK A01 T00060004  RH  098%=      5-min Rain = 0
KDC1 091206Z 27002KT 01/00 A3032 RMK A01 T00060004  RH  098%=      5-min Rain = 0
KDC1 091207Z 27002KT 01/00 A3033 RMK A01 T00050003  RH  098%=      5-min Rain = 0
KDC1 091208Z 27003KT 00/00 A3033 RMK A01 T00040002  RH  098%=      5-min Rain = 0
KDC1 091209Z 27003KT 00/00 A3033 RMK A01 T00030001  RH  098%=      5-min Rain = 0
KDC1 091210Z 27002KT 00/00 A3033 RMK A01 T000300-0  RH  098%=      5-min Rain = 0
KDC1 091211Z 27003KT 00/00 A3033 RMK A01 T00030000  RH  098%=      5-min Rain = 0
KDC1 091212Z 27003KT 00/00 A3033 RMK A01 T00030000  RH  098%=      5-min Rain = 0
KDC1 091213Z 27003KT 00/00 A3033 RMK A01 T00030000  RH  098%=      5-min Rain = 0
KDC1 091214Z 26003KT 00/00 A3033 RMK A01 T000200-0  RH  098%=      5-min Rain = 0.01
KDC1 091215Z 26003KT 00/00 A3033 RMK A01 T00030000  RH  098%=      5-min Rain = 0
KDC1 091216Z 26003KT 00/00 A3033 RMK A01 T00040002  RH  099%=      5-min Rain = 0
KDC1 091217Z 27003KT 01/00 A3033 RMK A01 T00060004  RH  099%=      5-min Rain = 0
KDC1 091218Z 27003KT 01/01 A3033 RMK A01 T00070005  RH  099%=      5-min Rain = 0
KDC1 091219Z 26003KT 01/01 A3033 RMK A01 T00080006  RH  099%=      5-min Rain = 0
KDC1 091220Z 27002KT 01/01 A3033 RMK A01 T00090007  RH  099%=      5-min Rain = 0
KDC1 091221Z 27002KT 01/01 A3033 RMK A01 T00090007  RH  099%=      5-min Rain = 0
KDC1 091222Z 27003KT 01/01 A3033 RMK A01 T00090007  RH  099%=      5-min Rain = 0
KDC1 091223Z 27003KT 01/01 A3033 RMK A01 T00090007  RH  099%=      5-min Rain = 0
KDC1 091224Z 25001KT 01/01 A3033 RMK A01 T00080007  RH  099%=      5-min Rain = 0
KDC1 091225Z 12002KT 01/00 A3033 RMK A01 T00060004  RH  099%=      5-min Rain = 0
KDC1 091226Z 22000KT 00/00 A3033 RMK A01 T00030000  RH  098%=      5-min Rain = 0
KDC1 091227Z 25001KT 00/00 A3033 RMK A01 T00040001  RH  098%=      5-min Rain = 0
KDC1 091228Z 25002KT 00/00 A3033 RMK A01 T00040002  RH  099%=      5-min Rain = 0
KDC1 091229Z 25002KT 00/00 A3033 RMK A01 T00040002  RH  099%=      5-min Rain = 0
KDC1 091230Z 25001KT 00/00 A3033 RMK A01 T00040002  RH  099%=      5-min Rain = 0
KDC1 091231Z 12001KT 00/00 A3033 RMK A01 T00030001  RH  099%=      5-min Rain = 0
KDC1 091232Z 11002KT 00/00 A3033 RMK A01 T000200-0  RH  099%=      5-min Rain = 0
KDC1 091233Z 12002KT 00/M00 A3033 RMK A01 T00011001  RH  099%=      5-min Rain = 0
KDC1 091234Z 13003KT 00/M00 A3034 RMK A01 T00011001  RH  099%=      5-min Rain = 0
KDC1 091235Z 13003KT M00/M00 A3034 RMK A01 T10011003  RH  099%=      5-min Rain = 0
KDC1 091236Z 16002KT M00/M01 A3033 RMK A01 T10041006  RH  098%=      5-min Rain = 0
KDC1 091237Z 18002KT M01/M01 A3033 RMK A01 T10051007  RH  098%=      5-min Rain = 0
KDC1 091238Z 19002KT M01/M01 A3033 RMK A01 T10051007  RH  098%=      5-min Rain = 0
KDC1 091239Z 18002KT M00/M01 A3033 RMK A01 T10041006  RH  098%=      5-min Rain = 0
KDC1 091240Z 16001KT M00/M01 A3033 RMK A01 T10031005  RH  099%=      5-min Rain = 0
KDC1 091241Z 15001KT M00/M01 A3033 RMK A01 T10031005  RH  099%=      5-min Rain = 0
KDC1 091242Z 14001KT M00/M01 A3033 RMK A01 T10031005  RH  099%=      5-min Rain = 0
KDC1 091243Z 13001KT M00/M01 A3034 RMK A01 T10041006  RH  099%=      5-min Rain = 0
KDC1 091244Z 13001KT M01/M01 A3034 RMK A01 T10051007  RH  099%=      5-min Rain = 0
KDC1 091245Z 14001KT M01/M01 A3034 RMK A01 T10051007  RH  099%=      5-min Rain = 0
KDC1 091246Z 14001KT M01/M01 A3034 RMK A01 T10051007  RH  099%=      5-min Rain = 0
KDC1 091247Z 15001KT M01/M01 A3034 RMK A01 T10051007  RH  099%=      5-min Rain = 0
KDC1 091248Z 13002KT M01/M01 A3034 RMK A01 T10051007  RH  099%=      5-min Rain = 0
KDC1 091249Z 13002KT M01/M01 A3034 RMK A01 T10051007  RH  099%=      5-min Rain = 0
KDC1 091250Z 13002KT M01/M01 A3034 RMK A01 T10051007  RH  099%=      5-min Rain = 0
KDC1 091251Z 13003KT M01/M01 A3034 RMK A01 T10051006  RH  099%=      5-min Rain = 0
KDC1 091252Z 12003KT M01/M01 A3034 RMK A01 T10051006  RH  099%=      5-min Rain = 0
KDC1 091253Z 14003KT M00/M01 A3034 RMK A01 T10041006  RH  099%=      5-min Rain = 0
KDC1 091254Z 15003KT M00/M00 A3034 RMK A01 T10031004  RH  099%=      5-min Rain = 0
KDC1 091255Z 15002KT M00/M00 A3034 RMK A01 T10031004  RH  099%=      5-min Rain = 0
KDC1 091256Z 15002KT M00/M01 A3034 RMK A01 T10031005  RH  099%=      5-min Rain = 0
KDC1 091257Z 15002KT M01/M01 A3035 RMK A01 T10051006  RH  099%=      5-min Rain = 0
KDC1 091258Z 16002KT M01/M01 A3035 RMK A01 T10061008  RH  099%=      5-min Rain = 0
KDC1 091259Z 19002KT M01/M01 A3035 RMK A01 T10071009  RH  099%=      5-min Rain = 0
KDC1 091300Z 21002KT M01/M01 A3035 RMK A01 T10071009  RH  099%=      5-min Rain = 0
KDC1 091301Z 20002KT M01/M01 A3035 RMK A01 T10061008  RH  099%=      5-min Rain = 0
KDC1 091302Z 21002KT M01/M01 A3035 RMK A01 T10051006  RH  099%=      5-min Rain = 0
KDC1 091303Z 22002KT M00/M01 A3035 RMK A01 T10041006  RH  099%=      5-min Rain = 0
KDC1 091304Z 21003KT M00/M01 A3035 RMK A01 T10041005  RH  099%=      5-min Rain = 0
KDC1 091305Z 22003KT M00/M00 A3035 RMK A01 T10031004  RH  099%=      5-min Rain = 0
KDC1 091306Z 23003KT M00/M00 A3035 RMK A01 T10011002  RH  099%=      5-min Rain = 0
KDC1 091307Z 23003KT 00/M00 A3035 RMK A01 T00011001  RH  099%=      5-min Rain = 0
KDC1 091308Z 23002KT 00/00 A3035 RMK A01 T000100-0  RH  099%=      5-min Rain = 0
KDC1 091309Z 24002KT 00/00 A3035 RMK A01 T000000-1  RH  099%=      5-min Rain = 0
KDC1 091310Z 25003KT 00/00 A3035 RMK A01 T000100-0  RH  099%=      5-min Rain = 0
KDC1 091311Z 25004KT 00/00 A3035 RMK A01 T000100-0  RH  099%=      5-min Rain = 0
KDC1 091312Z 25004KT 00/00 A3035 RMK A01 T00020001  RH  099%=      5-min Rain = 0
KDC1 091313Z 26003KT 00/00 A3035 RMK A01 T00020001  RH  099%=      5-min Rain = 0
KDC1 091314Z 26004KT 00/00 A3035 RMK A01 T00020001  RH  099%=      5-min Rain = 0
KDC1 091315Z 27004KT 00/00 A3035 RMK A01 T00020001  RH  099%=      5-min Rain = 0
KDC1 091316Z 27004KT 00/00 A3035 RMK A01 T00020001  RH  099%=      5-min Rain = 0
KDC1 091317Z 27003KT 00/00 A3035 RMK A01 T00020001  RH  099%=      5-min Rain = 0
KDC1 091318Z 27003KT 00/00 A3035 RMK A01 T00020001  RH  099%=      5-min Rain = 0
KDC1 091319Z 27003KT 00/00 A3035 RMK A01 T00010000  RH  099%=      5-min Rain = 0
KDC1 091320Z 27002KT 00/00 A3035 RMK A01 T000100-0  RH  099%=      5-min Rain = 0
KDC1 091321Z 27003KT 00/00 A3035 RMK A01 T000100-0  RH  099%=      5-min Rain = 0
KDC1 091322Z 27003KT 00/M00 A3035 RMK A01 T00011001  RH  099%=      5-min Rain = 0
KDC1 091323Z 28002KT 00/00 A3035 RMK A01 T00-000-1  RH  099%=      5-min Rain = 0
KDC1 091324Z 28001KT 00/00 A3035 RMK A01 T00-000-2  RH  099%=      5-min Rain = 0
KDC1 091325Z 27002KT 00/00 A3035 RMK A01 T00-000-2  RH  099%=      5-min Rain = 0
KDC1 091326Z 27003KT M00/M00 A3035 RMK A01 T10011002  RH  099%=      5-min Rain = 0
KDC1 091327Z 27003KT M00/M00 A3035 RMK A01 T10011002  RH  099%=      5-min Rain = 0
KDC1 091328Z 28003KT M00/M00 A3035 RMK A01 T10011002  RH  099%=      5-min Rain = 0
KDC1 091329Z 28002KT 00/00 A3035 RMK A01 T00-000-2  RH  099%=      5-min Rain = 0
KDC1 091330Z 28002KT 00/00 A3035 RMK A01 T00-000-1  RH  099%=      5-min Rain = 0
KDC1 091331Z 28002KT 00/00 A3035 RMK A01 T000000-1  RH  099%=      5-min Rain = 0
KDC1 091332Z 27003KT 00/00 A3035 RMK A01 T000000-1  RH  099%=      5-min Rain = 0
KDC1 091333Z 27003KT 00/00 A3035 RMK A01 T000000-1  RH  099%=      5-min Rain = 0
KDC1 091334Z 27003KT 00/00 A3035 RMK A01 T000000-1  RH  099%=      5-min Rain = 0
KDC1 091335Z 28003KT 00/00 A3036 RMK A01 T000000-1  RH  099%=      5-min Rain = 0
KDC1 091336Z 28004KT 00/00 A3036 RMK A01 T00-000-2  RH  099%=      5-min Rain = 0
KDC1 091337Z 29004KT 00/00 A3036 RMK A01 T00-000-2  RH  099%=      5-min Rain = 0
KDC1 091338Z 29003KT M00/M00 A3036 RMK A01 T10011002  RH  099%=      5-min Rain = 0
KDC1 091339Z 29003KT M00/M00 A3036 RMK A01 T10011003  RH  099%=      5-min Rain = 0
KDC1 091340Z 29004KT M00/M00 A3036 RMK A01 T10021004  RH  099%=      5-min Rain = 0
KDC1 091341Z 28004KT M00/M00 A3036 RMK A01 T10031004  RH  099%=      5-min Rain = 0
KDC1 091342Z 28005KT M00/M01 A3036 RMK A01 T10041005  RH  099%=      5-min Rain = 0
KDC1 091343Z 27005KT M00/M01 A3036 RMK A01 T10041006  RH  099%=      5-min Rain = 0
KDC1 091344Z 27004KT M01/M01 A3036 RMK A01 T10051007  RH  099%=      5-min Rain = 0
KDC1 091345Z 27004KT M01/M01 A3036 RMK A01 T10051006  RH  099%=      5-min Rain = 0
KDC1 091346Z 28004KT M01/M01 A3036 RMK A01 T10051007  RH  099%=      5-min Rain = 0
KDC1 091347Z 28004KT M01/M01 A3036 RMK A01 T10051007  RH  099%=      5-min Rain = 0
KDC1 091348Z 27003KT M01/M01 A3036 RMK A01 T10051007  RH  099%=      5-min Rain = 0
KDC1 091349Z 27003KT M00/M01 A3036 RMK A01 T10041006  RH  099%=      5-min Rain = 0
KDC1 091350Z 28003KT M00/M01 A3036 RMK A01 T10031005  RH  099%=      5-min Rain = 0
KDC1 091351Z 29003KT M00/M01 A3036 RMK A01 T10031005  RH  099%=      5-min Rain = 0
KDC1 091352Z 30003KT M00/M01 A3036 RMK A01 T10031005  RH  099%=      5-min Rain = 0
KDC1 091353Z 29003KT M00/M01 A3036 RMK A01 T10031005  RH  099%=      5-min Rain = 0
KDC1 091354Z 28003KT M00/M01 A3036 RMK A01 T10041006  RH  099%=      5-min Rain = 0
KDC1 091355Z 28003KT M01/M01 A3036 RMK A01 T10051007  RH  099%=      5-min Rain = 0
KDC1 091356Z 27003KT M01/M01 A3036 RMK A01 T10051007  RH  098%=      5-min Rain = 0
KDC1 091357Z 28004KT M00/M01 A3036 RMK A01 T10041006  RH  099%=      5-min Rain = 0
KDC1 091358Z 28003KT M01/M01 A3037 RMK A01 T10051007  RH  098%=      5-min Rain = 0
KDC1 091359Z 28002KT M01/M01 A3037 RMK A01 T10051007  RH  098%=      5-min Rain = 0
KDC1 091400Z 29002KT M01/M01 A3037 RMK A01 T10051007  RH  098%=      5-min Rain = 0
KDC1 091401Z 30002KT M01/M01 A3037 RMK A01 T10051007  RH  098%=      5-min Rain = 0
KDC1 091402Z 29002KT M01/M01 A3037 RMK A01 T10051007  RH  098%=      5-min Rain = 0
KDC1 091403Z 28002KT M01/M01 A3037 RMK A01 T10051008  RH  098%=      5-min Rain = 0
KDC1 091404Z 28003KT M01/M01 A3037 RMK A01 T10061009  RH  098%=      5-min Rain = 0
KDC1 091405Z 28003KT M01/M01 A3037 RMK A01 T10071009  RH  098%=      5-min Rain = 0
KDC1 091406Z 30001KT M01/M01 A3037 RMK A01 T10071010  RH  098%=      5-min Rain = 0
KDC1 091407Z 31001KT M01/M01 A3037 RMK A01 T10071010  RH  098%=      5-min Rain = 0
KDC1 091408Z 28002KT M01/M01 A3037 RMK A01 T10071010  RH  098%=      5-min Rain = 0
KDC1 091409Z 28003KT M01/M01 A3037 RMK A01 T10071010  RH  098%=      5-min Rain = 0
KDC1 091410Z 29003KT M01/M01 A3037 RMK A01 T10061009  RH  098%=      5-min Rain = 0
KDC1 091411Z 28002KT M01/M01 A3037 RMK A01 T10061009  RH  098%=      5-min Rain = 0
KDC1 091412Z 27002KT M01/M01 A3037 RMK A01 T10061009  RH  098%=      5-min Rain = 0
KDC1 091413Z 28003KT M01/M01 A3037 RMK A01 T10061008  RH  098%=      5-min Rain = 0
KDC1 091414Z 27002KT M01/M01 A3037 RMK A01 T10061009  RH  098%=      5-min Rain = 0
KDC1 091415Z 28002KT M01/M01 A3037 RMK A01 T10061009  RH  098%=      5-min Rain = 0
KDC1 091416Z 28002KT M01/M01 A3037 RMK A01 T10061009  RH  098%=      5-min Rain = 0
KDC1 091417Z 28002KT M01/M01 A3037 RMK A01 T10061009  RH  098%=      5-min Rain = 0
KDC1 091418Z 28003KT M01/M01 A3037 RMK A01 T10061009  RH  098%=      5-min Rain = 0
KDC1 091419Z 28003KT M01/M01 A3037 RMK A01 T10061009  RH  098%=      5-min Rain = 0
KDC1 091420Z 27003KT M01/M01 A3037 RMK A01 T10061009  RH  098%=      5-min Rain = 0
KDC1 091421Z 27004KT M01/M01 A3037 RMK A01 T10061008  RH  098%=      5-min Rain = 0
KDC1 091422Z 28003KT M01/M01 A3037 RMK A01 T10051008  RH  098%=      5-min Rain = 0
KDC1 091423Z 28003KT M01/M01 A3037 RMK A01 T10051007  RH  098%=      5-min Rain = 0
KDC1 091424Z 28004KT M00/M01 A3037 RMK A01 T10041007  RH  098%=      5-min Rain = 0
KDC1 091425Z 28004KT M00/M01 A3037 RMK A01 T10041007  RH  098%=      5-min Rain = 0
KDC1 091426Z 29004KT M00/M01 A3037 RMK A01 T10041007  RH  098%=      5-min Rain = 0
KDC1 091427Z 29004KT M00/M01 A3037 RMK A01 T10041007  RH  098%=      5-min Rain = 0
KDC1 091428Z 29003KT M00/M01 A3038 RMK A01 T10041006  RH  098%=      5-min Rain = 0
KDC1 091429Z 29002KT M00/M01 A3038 RMK A01 T10041007  RH  098%=      5-min Rain = 0
KDC1 091430Z 29002KT M00/M01 A3038 RMK A01 T10031007  RH  098%=      5-min Rain = 0
KDC1 091431Z 29002KT M00/M01 A3038 RMK A01 T10031006  RH  098%=      5-min Rain = 0
KDC1 091432Z 29003KT M00/M01 A3038 RMK A01 T10031006  RH  098%=      5-min Rain = 0
KDC1 091433Z 29003KT M00/M01 A3038 RMK A01 T10021005  RH  098%=      5-min Rain = 0
KDC1 091434Z 30002KT M00/M01 A3038 RMK A01 T10021005  RH  098%=      5-min Rain = 0
KDC1 091435Z 31002KT M00/M00 A3038 RMK A01 T10011004  RH  098%=      5-min Rain = 0
KDC1 091436Z 30003KT M00/M00 A3038 RMK A01 T10011004  RH  098%=      5-min Rain = 0
KDC1 091437Z 31003KT M00/M01 A3038 RMK A01 T10011005  RH  098%=      5-min Rain = 0
KDC1 091438Z 31003KT M00/M00 A3038 RMK A01 T10011004  RH  098%=      5-min Rain = 0
KDC1 091439Z 31002KT M00/M00 A3038 RMK A01 T10011004  RH  098%=      5-min Rain = 0
KDC1 091440Z 31003KT 00/00 A3038 RMK A01 T00-000-4  RH  098%=      5-min Rain = 0
KDC1 091441Z 31003KT 00/00 A3038 RMK A01 T00-000-3  RH  098%=      5-min Rain = 0
KDC1 091442Z 31002KT 00/00 A3038 RMK A01 T000000-3  RH  098%=      5-min Rain = 0
KDC1 091443Z 32002KT 00/M00 A3038 RMK A01 T00011002  RH  098%=      5-min Rain = 0
KDC1 091444Z 33002KT 00/M00 A3038 RMK A01 T00011002  RH  098%=      5-min Rain = 0
KDC1 091445Z 31003KT 00/M00 A3038 RMK A01 T00011002  RH  098%=      5-min Rain = 0
KDC1 091446Z 31003KT 00/M00 A3038 RMK A01 T00011002  RH  098%=      5-min Rain = 0
KDC1 091447Z 30002KT 00/M00 A3038 RMK A01 T00011002  RH  098%=      5-min Rain = 0
KDC1 091448Z 32002KT 00/M00 A3038 RMK A01 T00021002  RH  098%=      5-min Rain = 0
KDC1 091449Z 31002KT 00/M00 A3038 RMK A01 T00021001  RH  098%=      5-min Rain = 0
KDC1 091450Z 29002KT 00/M00 A3038 RMK A01 T00021001  RH  098%=      5-min Rain = 0
KDC1 091451Z 29001KT 00/00 A3038 RMK A01 T000300-0  RH  098%=      5-min Rain = 0
KDC1 091452Z 30002KT 00/00 A3038 RMK A01 T00030000  RH  098%=      5-min Rain = 0
KDC1 091453Z 31002KT 00/00 A3038 RMK A01 T00040001  RH  098%=      5-min Rain = 0
KDC1 091454Z 31002KT 01/00 A3038 RMK A01 T00050002  RH  098%=      5-min Rain = 0
KDC1 091455Z 30002KT 01/00 A3038 RMK A01 T00050002  RH  098%=      5-min Rain = 0
KDC1 091456Z 30002KT 01/00 A3038 RMK A01 T00060003  RH  098%=      5-min Rain = 0
KDC1 091457Z 30002KT 01/00 A3038 RMK A01 T00060003  RH  098%=      5-min Rain = 0
KDC1 091458Z 30001KT 01/00 A3038 RMK A01 T00070004  RH  098%=      5-min Rain = 0
KDC1 091459Z 30002KT 01/01 A3038 RMK A01 T00080005  RH  098%=      5-min Rain = 0
KDC1 091500Z 31002KT 01/01 A3038 RMK A01 T00080005  RH  098%=      5-min Rain = 0
KDC1 091501Z 32002KT 01/01 A3038 RMK A01 T00090006  RH  098%=      5-min Rain = 0
KDC1 091502Z 31001KT 01/01 A3038 RMK A01 T00100007  RH  098%=      5-min Rain = 0
KDC1 091503Z 28001KT 01/01 A3038 RMK A01 T00110008  RH  098%=      5-min Rain = 0
KDC1 091504Z 28002KT 01/01 A3038 RMK A01 T00120009  RH  098%=      5-min Rain = 0
KDC1 091505Z 28003KT 01/01 A3038 RMK A01 T00130010  RH  098%=      5-min Rain = 0
KDC1 091506Z 28003KT 01/01 A3038 RMK A01 T00130010  RH  098%=      5-min Rain = 0
KDC1 091507Z 28002KT 01/01 A3038 RMK A01 T00140011  RH  098%=      5-min Rain = 0
KDC1 091508Z 29002KT 01/01 A3038 RMK A01 T00140010  RH  098%=      5-min Rain = 0
KDC1 091509Z 29002KT 01/01 A3038 RMK A01 T00140010  RH  098%=      5-min Rain = 0
KDC1 091510Z 29002KT 01/01 A3038 RMK A01 T00140010  RH  097%=      5-min Rain = 0
KDC1 091511Z 28001KT 01/01 A3038 RMK A01 T00140010  RH  097%=      5-min Rain = 0
KDC1 091512Z 28000KT 01/01 A3038 RMK A01 T00140010  RH  097%=      5-min Rain = 0
KDC1 091513Z 31001KT 01/01 A3038 RMK A01 T00140010  RH  097%=      5-min Rain = 0
KDC1 091514Z 33002KT 01/01 A3038 RMK A01 T00140010  RH  097%=      5-min Rain = 0
KDC1 091515Z 33002KT 02/01 A3038 RMK A01 T00150010  RH  097%=      5-min Rain = 0
KDC1 091516Z 32002KT 02/01 A3038 RMK A01 T00150010  RH  097%=      5-min Rain = 0
KDC1 091517Z 30002KT 02/01 A3038 RMK A01 T00150010  RH  097%=      5-min Rain = 0
KDC1 091518Z 30002KT 02/01 A3038 RMK A01 T00150011  RH  097%=      5-min Rain = 0
KDC1 091519Z 30002KT 02/01 A3038 RMK A01 T00160011  RH  097%=      5-min Rain = 0
KDC1 091520Z 33002KT 02/01 A3038 RMK A01 T00160011  RH  096%=      5-min Rain = 0
KDC1 091521Z 36002KT 02/01 A3039 RMK A01 T00160011  RH  096%=      5-min Rain = 0
KDC1 091522Z 34001KT 02/01 A3038 RMK A01 T00160011  RH  096%=      5-min Rain = 0
KDC1 091523Z 32001KT 02/01 A3038 RMK A01 T00170012  RH  096%=      5-min Rain = 0
KDC1 091524Z 33001KT 02/01 A3038 RMK A01 T00170012  RH  096%=      5-min Rain = 0
KDC1 091525Z 00001KT 02/01 A3039 RMK A01 T00180012  RH  096%=      5-min Rain = 0
KDC1 091526Z 01002KT 02/01 A3039 RMK A01 T00190013  RH  096%=      5-min Rain = 0
KDC1 091527Z 01001KT 02/01 A3039 RMK A01 T00190014  RH  096%=      5-min Rain = 0
KDC1 091528Z 02001KT 02/01 A3039 RMK A01 T00200014  RH  096%=      5-min Rain = 0
KDC1 091529Z 03001KT 02/02 A3039 RMK A01 T00210015  RH  096%=      5-min Rain = 0
KDC1 091530Z 01002KT 02/01 A3039 RMK A01 T00210014  RH  095%=      5-min Rain = 0
KDC1 091531Z 36002KT 02/01 A3039 RMK A01 T00210014  RH  095%=      5-min Rain = 0
KDC1 091532Z 02002KT 02/01 A3039 RMK A01 T00210014  RH  095%=      5-min Rain = 0
KDC1 091533Z 03003KT 02/02 A3039 RMK A01 T00210015  RH  095%=      5-min Rain = 0
KDC1 091534Z 04003KT 02/02 A3039 RMK A01 T00220015  RH  095%=      5-min Rain = 0
KDC1 091535Z 04002KT 02/02 A3039 RMK A01 T00220015  RH  095%=      5-min Rain = 0
KDC1 091536Z 04003KT 02/02 A3039 RMK A01 T00220015  RH  095%=      5-min Rain = 0
KDC1 091537Z 05003KT 02/02 A3039 RMK A01 T00220015  RH  095%=      5-min Rain = 0
KDC1 091538Z 06003KT 02/02 A3039 RMK A01 T00230016  RH  095%=      5-min Rain = 0
KDC1 091539Z 05003KT 02/02 A3039 RMK A01 T00230015  RH  095%=      5-min Rain = 0
KDC1 091540Z 05003KT 02/02 A3039 RMK A01 T00230015  RH  095%=      5-min Rain = 0
KDC1 091541Z 04002KT 02/02 A3039 RMK A01 T00230016  RH  095%=      5-min Rain = 0
KDC1 091542Z 05001KT 02/02 A3039 RMK A01 T00230017  RH  095%=      5-min Rain = 0
KDC1 091543Z 06002KT 03/02 A3039 RMK A01 T00250018  RH  096%=      5-min Rain = 0
KDC1 091544Z 07003KT 03/02 A3039 RMK A01 T00260020  RH  096%=      5-min Rain = 0
KDC1 091545Z 07003KT 03/02 A3039 RMK A01 T00260019  RH  095%=      5-min Rain = 0
KDC1 091546Z 06003KT 03/02 A3039 RMK A01 T00260019  RH  095%=      5-min Rain = 0
KDC1 091547Z 06002KT 03/02 A3039 RMK A01 T00260019  RH  095%=      5-min Rain = 0
KDC1 091548Z 06002KT 03/02 A3039 RMK A01 T00260018  RH  095%=      5-min Rain = 0
KDC1 091549Z 07002KT 03/02 A3039 RMK A01 T00260018  RH  095%=      5-min Rain = 0
KDC1 091550Z 07003KT 03/02 A3039 RMK A01 T00270019  RH  095%=      5-min Rain = 0
KDC1 091551Z 07003KT 03/02 A3039 RMK A01 T00290022  RH  095%=      5-min Rain = 0
KDC1 091552Z 09002KT 03/02 A3039 RMK A01 T00290022  RH  095%=      5-min Rain = 0
KDC1 091553Z 09003KT 03/02 A3039 RMK A01 T00290021  RH  094%=      5-min Rain = 0
KDC1 091554Z 09003KT 03/02 A304 RMK A01 T00290021  RH  094%=      5-min Rain = 0
KDC1 091555Z 10002KT 03/02 A304 RMK A01 T00300021  RH  094%=      5-min Rain = 0
KDC1 091556Z 08002KT 03/02 A304 RMK A01 T00310022  RH  094%=      5-min Rain = 0
KDC1 091557Z 07002KT 03/02 A304 RMK A01 T00310022  RH  094%=      5-min Rain = 0
KDC1 091558Z 09002KT 03/02 A304 RMK A01 T00300021  RH  093%=      5-min Rain = 0
KDC1 091559Z 09003KT 03/02 A304 RMK A01 T00300021  RH  093%=      5-min Rain = 0
KDC1 091600Z 10003KT 03/02 A304 RMK A01 T00310021  RH  093%=      5-min Rain = 0
KDC1 091601Z 10003KT 03/02 A304 RMK A01 T00310021  RH  093%=      5-min Rain = 0
KDC1 091602Z 09003KT 03/02 A304 RMK A01 T00320022  RH  093%=      5-min Rain = 0
KDC1 091603Z 08004KT 03/02 A304 RMK A01 T00310020  RH  093%=      5-min Rain = 0
KDC1 091604Z 10003KT 03/02 A304 RMK A01 T00300019  RH  092%=      5-min Rain = 0
KDC1 091605Z 09004KT 03/02 A304 RMK A01 T00290019  RH  093%=      5-min Rain = 0
KDC1 091606Z 08004KT 03/02 A304 RMK A01 T00290018  RH  093%=      5-min Rain = 0
KDC1 091607Z 08004KT 03/02 A304 RMK A01 T00290018  RH  093%=      5-min Rain = 0
KDC1 091608Z 09004KT 03/02 A304 RMK A01 T00290019  RH  093%=      5-min Rain = 0
KDC1 091609Z 09004KT 03/02 A304 RMK A01 T00290019  RH  093%=      5-min Rain = 0
KDC1 091610Z 06004KT 03/02 A304 RMK A01 T00300020  RH  094%=      5-min Rain = 0
KDC1 091611Z 09004KT 03/02 A304 RMK A01 T00300021  RH  094%=      5-min Rain = 0
KDC1 091612Z 09003KT 03/02 A304 RMK A01 T00290020  RH  094%=      5-min Rain = 0
KDC1 091613Z 08003KT 03/02 A304 RMK A01 T00300020  RH  094%=      5-min Rain = 0
KDC1 091614Z 08003KT 03/02 A304 RMK A01 T00300021  RH  094%=      5-min Rain = 0
KDC1 091615Z 08003KT 03/02 A304 RMK A01 T00310022  RH  094%=      5-min Rain = 0
KDC1 091616Z 08003KT 03/02 A304 RMK A01 T00310022  RH  094%=      5-min Rain = 0
KDC1 091617Z 08004KT 03/02 A304 RMK A01 T00310022  RH  094%=      5-min Rain = 0
KDC1 091618Z 09003KT 03/02 A304 RMK A01 T00300021  RH  094%=      5-min Rain = 0
KDC1 091619Z 10003KT 03/02 A304 RMK A01 T00290021  RH  094%=      5-min Rain = 0
KDC1 091620Z 08003KT 03/02 A304 RMK A01 T00290021  RH  094%=      5-min Rain = 0
KDC1 091621Z 10003KT 03/02 A3041 RMK A01 T00300022  RH  095%=      5-min Rain = 0
KDC1 091622Z 09002KT 03/02 A3041 RMK A01 T00300022  RH  095%=      5-min Rain = 0
KDC1 091623Z 07002KT 03/02 A3041 RMK A01 T00300023  RH  095%=      5-min Rain = 0
KDC1 091624Z 07002KT 03/02 A3041 RMK A01 T00300023  RH  095%=      5-min Rain = 0
KDC1 091625Z 08002KT 03/02 A3041 RMK A01 T00290022  RH  095%=      5-min Rain = 0
KDC1 091626Z 07001KT 03/02 A3041 RMK A01 T00300024  RH  095%=      5-min Rain = 0
KDC1 091627Z 08002KT 03/03 A3041 RMK A01 T00310025  RH  096%=      5-min Rain = 0
KDC1 091628Z 07002KT 03/03 A3041 RMK A01 T00320026  RH  096%=      5-min Rain = 0
KDC1 091629Z 09001KT 03/03 A3041 RMK A01 T00320026  RH  096%=      5-min Rain = 0
KDC1 091630Z 07002KT 03/03 A3041 RMK A01 T00330027  RH  096%=      5-min Rain = 0
KDC1 091631Z 06002KT 03/03 A3041 RMK A01 T00340029  RH  096%=      5-min Rain = 0
KDC1 091632Z 06001KT 03/03 A3041 RMK A01 T00340028  RH  096%=      5-min Rain = 0
KDC1 091633Z 07002KT 03/03 A3041 RMK A01 T00340028  RH  095%=      5-min Rain = 0
KDC1 091634Z 05001KT 04/03 A3041 RMK A01 T00350028  RH  095%=      5-min Rain = 0
KDC1 091635Z 04000KT 04/03 A3041 RMK A01 T00360029  RH  095%=      5-min Rain = 0
KDC1 091636Z 06001KT 04/03 A3041 RMK A01 T00370031  RH  095%=      5-min Rain = 0
KDC1 091637Z 09000KT 04/03 A304 RMK A01 T00400033  RH  095%=      5-min Rain = 0
KDC1 091638Z 06001KT 04/03 A304 RMK A01 T00410034  RH  096%=      5-min Rain = 0
KDC1 091639Z 05000KT 04/04 A304 RMK A01 T00420035  RH  095%=      5-min Rain = 0
KDC1 091640Z 06000KT 04/03 A304 RMK A01 T00420034  RH  095%=      5-min Rain = 0
KDC1 091641Z 07000KT 04/04 A304 RMK A01 T00430035  RH  094%=      5-min Rain = 0
KDC1 091642Z 07000KT 05/04 A304 RMK A01 T00450036  RH  094%=      5-min Rain = 0
KDC1 091643Z 00000KT 05/04 A304 RMK A01 T00490041  RH  094%=      5-min Rain = 0
KDC1 091644Z 00000KT 05/05 A304 RMK A01 T00530045  RH  095%=      5-min Rain = 0
KDC1 091645Z 19000KT 06/05 A304 RMK A01 T00570047  RH  093%=      5-min Rain = 0
KDC1 091646Z 21000KT 06/05 A304 RMK A01 T00590045  RH  091%=      5-min Rain = 0
KDC1 091647Z 21000KT 06/04 A304 RMK A01 T00600041  RH  088%=      5-min Rain = 0
KDC1 091648Z 00000KT 06/04 A304 RMK A01 T00600039  RH  087%=      5-min Rain = 0
KDC1 091649Z 00000KT 06/04 A304 RMK A01 T00600038  RH  086%=      5-min Rain = 0
KDC1 091650Z 00000KT 06/04 A304 RMK A01 T00600037  RH  085%=      5-min Rain = 0
KDC1 091651Z 00000KT 06/04 A304 RMK A01 T00600035  RH  084%=      5-min Rain = 0
KDC1 091652Z 00000KT 06/03 A304 RMK A01 T00600034  RH  084%=      5-min Rain = 0
KDC1 091653Z 00000KT 06/03 A304 RMK A01 T00600034  RH  084%=      5-min Rain = 0
KDC1 091654Z 00000KT 06/04 A304 RMK A01 T00600035  RH  084%=      5-min Rain = 0
KDC1 091655Z 35000KT 06/04 A304 RMK A01 T00620037  RH  084%=      5-min Rain = 0
KDC1 091656Z 00000KT 06/04 A304 RMK A01 T00640038  RH  084%=      5-min Rain = 0
KDC1 091657Z 34001KT 06/04 A304 RMK A01 T00640037  RH  083%=      5-min Rain = 0
KDC1 091658Z 36000KT 06/04 A304 RMK A01 T00620036  RH  084%=      5-min Rain = 0
KDC1 091659Z 00000KT 06/04 A304 RMK A01 T00620038  RH  085%=      5-min Rain = 0
KDC1 091700Z 00000KT 06/04 A304 RMK A01 T00630038  RH  084%=      5-min Rain = 0
KDC1 091701Z 00000KT 07/04 A304 RMK A01 T00660041  RH  084%=      5-min Rain = 0
KDC1 091702Z 00000KT 07/04 A304 RMK A01 T00700043  RH  083%=      5-min Rain = 0
KDC1 091703Z 00000KT 07/04 A304 RMK A01 T00700039  RH  081%=      5-min Rain = 0
KDC1 091704Z 00000KT 07/04 A304 RMK A01 T00700039  RH  080%=      5-min Rain = 0
KDC1 091705Z 00000KT 07/04 A304 RMK A01 T00700039  RH  080%=      5-min Rain = 0
KDC1 091706Z 00000KT 07/04 A304 RMK A01 T00720040  RH  080%=      5-min Rain = 0
KDC1 091707Z 00000KT 07/04 A304 RMK A01 T00730042  RH  081%=      5-min Rain = 0
KDC1 091708Z 00000KT 08/04 A304 RMK A01 T00750044  RH  080%=      5-min Rain = 0
KDC1 091709Z 00000KT 08/04 A304 RMK A01 T00750042  RH  079%=      5-min Rain = 0
KDC1 091710Z 00000KT 08/04 A304 RMK A01 T00750043  RH  080%=      5-min Rain = 0
KDC1 091711Z 24001KT 08/05 A304 RMK A01 T00760046  RH  082%=      5-min Rain = 0
KDC1 091712Z 21001KT 08/04 A304 RMK A01 T00750042  RH  079%=      5-min Rain = 0
KDC1 091713Z 22000KT 07/04 A304 RMK A01 T00730037  RH  078%=      5-min Rain = 0
KDC1 091714Z 00000KT 07/04 A304 RMK A01 T00700036  RH  079%=      5-min Rain = 0
KDC1 091715Z 00000KT 07/04 A304 RMK A01 T00700035  RH  078%=      5-min Rain = 0
KDC1 091716Z 00000KT 07/04 A304 RMK A01 T00710035  RH  078%=      5-min Rain = 0
KDC1 091717Z 13000KT 07/04 A304 RMK A01 T00730037  RH  078%=      5-min Rain = 0
KDC1 091718Z 14001KT 08/04 A304 RMK A01 T00750040  RH  079%=      5-min Rain = 0
KDC1 091719Z 16000KT 08/04 A3039 RMK A01 T00750039  RH  078%=      5-min Rain = 0
KDC1 091720Z 14002KT 08/04 A3039 RMK A01 T00750039  RH  078%=      5-min Rain = 0
KDC1 091721Z 14002KT 08/04 A3039 RMK A01 T00750043  RH  080%=      5-min Rain = 0
KDC1 091722Z 13002KT 07/04 A3039 RMK A01 T00730039  RH  079%=      5-min Rain = 0
KDC1 091723Z 11001KT 07/04 A3039 RMK A01 T00710037  RH  079%=      5-min Rain = 0
KDC1 091724Z 08001KT 07/04 A3039 RMK A01 T00700038  RH  080%=      5-min Rain = 0
KDC1 091725Z 07001KT 07/04 A3039 RMK A01 T00690040  RH  082%=      5-min Rain = 0
KDC1 091726Z 06001KT 07/04 A3039 RMK A01 T00680040  RH  082%=      5-min Rain = 0
KDC1 091727Z 04001KT 07/04 A3039 RMK A01 T00670042  RH  084%=      5-min Rain = 0
KDC1 091728Z 02000KT 07/04 A3039 RMK A01 T00670042  RH  084%=      5-min Rain = 0
KDC1 091729Z 10001KT 07/04 A3039 RMK A01 T00670043  RH  085%=      5-min Rain = 0
KDC1 091730Z 08002KT 07/04 A3039 RMK A01 T00670044  RH  085%=      5-min Rain = 0
KDC1 091731Z 08002KT 07/04 A3039 RMK A01 T00670043  RH  085%=      5-min Rain = 0
KDC1 091732Z 10001KT 07/04 A3039 RMK A01 T00670043  RH  085%=      5-min Rain = 0
KDC1 091733Z 11001KT 07/04 A3039 RMK A01 T00670042  RH  084%=      5-min Rain = 0
KDC1 091734Z 14002KT 07/04 A3039 RMK A01 T00680042  RH  084%=      5-min Rain = 0
KDC1 091735Z 13001KT 07/04 A3039 RMK A01 T00690042  RH  083%=      5-min Rain = 0
KDC1 091736Z 14001KT 07/04 A3039 RMK A01 T00700044  RH  083%=      5-min Rain = 0
KDC1 091737Z 10001KT 07/05 A3039 RMK A01 T00720045  RH  083%=      5-min Rain = 0
KDC1 091738Z 10001KT 07/05 A3039 RMK A01 T00730045  RH  082%=      5-min Rain = 0
KDC1 091739Z 11001KT 07/04 A3039 RMK A01 T00730044  RH  082%=      5-min Rain = 0
KDC1 091740Z 12001KT 07/04 A3039 RMK A01 T00740044  RH  081%=      5-min Rain = 0
KDC1 091741Z 16001KT 08/05 A3039 RMK A01 T00750045  RH  081%=      5-min Rain = 0
KDC1 091742Z 16001KT 08/05 A3039 RMK A01 T00760048  RH  082%=      5-min Rain = 0
KDC1 091743Z 15003KT 08/05 A3039 RMK A01 T00780049  RH  082%=      5-min Rain = 0
KDC1 091744Z 16003KT 08/05 A3039 RMK A01 T00780047  RH  081%=      5-min Rain = 0
KDC1 091745Z 15002KT 08/05 A3039 RMK A01 T00770047  RH  081%=      5-min Rain = 0
KDC1 091746Z 17003KT 08/05 A3039 RMK A01 T00770048  RH  082%=      5-min Rain = 0
KDC1 091747Z 16001KT 08/05 A3039 RMK A01 T00770048  RH  082%=      5-min Rain = 0
KDC1 091748Z 11001KT 08/05 A3039 RMK A01 T00770049  RH  082%=      5-min Rain = 0
KDC1 091749Z 11001KT 08/05 A3039 RMK A01 T00780049  RH  082%=      5-min Rain = 0
KDC1 091750Z 10001KT 08/05 A3039 RMK A01 T00780047  RH  081%=      5-min Rain = 0
KDC1 091751Z 09000KT 08/05 A3039 RMK A01 T00790048  RH  081%=      5-min Rain = 0
KDC1 091752Z 11000KT 08/05 A3039 RMK A01 T00790046  RH  080%=      5-min Rain = 0
KDC1 091753Z 13001KT 08/05 A3039 RMK A01 T00800047  RH  079%=      5-min Rain = 0
KDC1 091754Z 16001KT 08/05 A3039 RMK A01 T00810046  RH  079%=      5-min Rain = 0
KDC1 091755Z 02001KT 08/05 A3039 RMK A01 T00820047  RH  079%=      5-min Rain = 0
KDC1 091756Z 10001KT 08/05 A3039 RMK A01 T00820048  RH  079%=      5-min Rain = 0
KDC1 091757Z 11000KT 08/05 A3039 RMK A01 T00830050  RH  080%=      5-min Rain = 0
KDC1 091758Z 12002KT 08/05 A3039 RMK A01 T00840051  RH  080%=      5-min Rain = 0
KDC1 091759Z 15004KT 08/05 A3039 RMK A01 T00840052  RH  080%=      5-min Rain = 0
KDC1 091800Z 15003KT 08/05 A3039 RMK A01 T00840052  RH  081%=      5-min Rain = 0
KDC1 091801Z 15003KT 08/06 A3039 RMK A01 T00840055  RH  082%=      5-min Rain = 0
KDC1 091802Z 13003KT 08/05 A3038 RMK A01 T00840053  RH  081%=      5-min Rain = 0
KDC1 091803Z 13004KT 08/05 A3038 RMK A01 T00830051  RH  080%=      5-min Rain = 0
KDC1 091804Z 14004KT 08/05 A3038 RMK A01 T00820053  RH  082%=      5-min Rain = 0
KDC1 091805Z 13003KT 08/05 A3038 RMK A01 T00820050  RH  080%=      5-min Rain = 0
KDC1 091806Z 11004KT 08/05 A3038 RMK A01 T00820052  RH  082%=      5-min Rain = 0
KDC1 091807Z 12004KT 08/05 A3038 RMK A01 T00820052  RH  082%=      5-min Rain = 0
KDC1 091808Z 12004KT 08/06 A3038 RMK A01 T00820055  RH  083%=      5-min Rain = 0
KDC1 091809Z 12004KT 08/06 A3038 RMK A01 T00820055  RH  083%=      5-min Rain = 0
KDC1 091810Z 14004KT 08/05 A3038 RMK A01 T00820054  RH  083%=      5-min Rain = 0
KDC1 091811Z 15005KT 08/06 A3038 RMK A01 T00830056  RH  083%=      5-min Rain = 0
KDC1 091812Z 13004KT 08/06 A3038 RMK A01 T00840055  RH  082%=      5-min Rain = 0
KDC1 091813Z 12004KT 08/05 A3038 RMK A01 T00830053  RH  082%=      5-min Rain = 0
KDC1 091814Z 15004KT 08/05 A3038 RMK A01 T00820054  RH  082%=      5-min Rain = 0
KDC1 091815Z 13004KT 08/06 A3038 RMK A01 T00820055  RH  083%=      5-min Rain = 0
KDC1 091816Z 13004KT 08/05 A3038 RMK A01 T00830054  RH  082%=      5-min Rain = 0
KDC1 091817Z 11004KT 08/06 A3038 RMK A01 T00840055  RH  082%=      5-min Rain = 0
KDC1 091818Z 14003KT 08/05 A3038 RMK A01 T00840054  RH  082%=      5-min Rain = 0
KDC1 091819Z 14003KT 08/05 A3038 RMK A01 T00840052  RH  081%=      5-min Rain = 0
KDC1 091820Z 15003KT 08/05 A3038 RMK A01 T00840052  RH  080%=      5-min Rain = 0
KDC1 091821Z 15003KT 09/05 A3038 RMK A01 T00850053  RH  080%=      5-min Rain = 0
KDC1 091822Z 15003KT 09/05 A3037 RMK A01 T00860054  RH  081%=      5-min Rain = 0
KDC1 091823Z 13003KT 09/06 A3037 RMK A01 T00870055  RH  080%=      5-min Rain = 0
KDC1 091824Z 12004KT 09/05 A3037 RMK A01 T00880054  RH  079%=      5-min Rain = 0
KDC1 091825Z 12003KT 09/05 A3037 RMK A01 T00860051  RH  079%=      5-min Rain = 0
KDC1 091826Z 11003KT 09/05 A3037 RMK A01 T00850051  RH  079%=      5-min Rain = 0
KDC1 091827Z 13002KT 08/05 A3037 RMK A01 T00840052  RH  080%=      5-min Rain = 0
KDC1 091828Z 14004KT 09/06 A3037 RMK A01 T00860055  RH  081%=      5-min Rain = 0
KDC1 091829Z 13003KT 09/06 A3037 RMK A01 T00870055  RH  080%=      5-min Rain = 0
KDC1 091830Z 11003KT 09/05 A3037 RMK A01 T00870053  RH  079%=      5-min Rain = 0
KDC1 091831Z 11002KT 09/05 A3037 RMK A01 T00870050  RH  078%=      5-min Rain = 0
KDC1 091832Z 11001KT 09/05 A3037 RMK A01 T00860051  RH  079%=      5-min Rain = 0
KDC1 091833Z 15001KT 09/05 A3037 RMK A01 T00860051  RH  079%=      5-min Rain = 0
KDC1 091834Z 17002KT 09/06 A3037 RMK A01 T00880056  RH  081%=      5-min Rain = 0
KDC1 091835Z 18001KT 09/05 A3037 RMK A01 T00890053  RH  078%=      5-min Rain = 0
KDC1 091836Z 16002KT 09/05 A3037 RMK A01 T00900054  RH  078%=      5-min Rain = 0
KDC1 091837Z 15003KT 09/06 A3037 RMK A01 T00920057  RH  079%=      5-min Rain = 0
KDC1 091838Z 14004KT 09/06 A3037 RMK A01 T00920057  RH  079%=      5-min Rain = 0
KDC1 091839Z 15005KT 09/06 A3037 RMK A01 T00930060  RH  080%=      5-min Rain = 0
KDC1 091840Z 14005KT 09/06 A3037 RMK A01 T00930056  RH  078%=      5-min Rain = 0
KDC1 091841Z 15003KT 09/05 A3037 RMK A01 T00910053  RH  077%=      5-min Rain = 0
KDC1 091842Z 13003KT 09/05 A3037 RMK A01 T00910053  RH  077%=      5-min Rain = 0
KDC1 091843Z 13003KT 09/05 A3036 RMK A01 T00900052  RH  077%=      5-min Rain = 0
KDC1 091844Z 14002KT 09/05 A3036 RMK A01 T00900051  RH  077%=      5-min Rain = 0
KDC1 091845Z 13002KT 09/05 A3036 RMK A01 T00900051  RH  077%=      5-min Rain = 0
KDC1 091846Z 10001KT 09/05 A3036 RMK A01 T00920054  RH  077%=      5-min Rain = 0
KDC1 091847Z 13001KT 09/05 A3036 RMK A01 T00930051  RH  075%=      5-min Rain = 0
KDC1 091848Z 15003KT 10/06 A3036 RMK A01 T00950056  RH  077%=      5-min Rain = 0
KDC1 091849Z 14001KT 10/05 A3036 RMK A01 T00960054  RH  075%=      5-min Rain = 0
KDC1 091850Z 04000KT 10/05 A3036 RMK A01 T00960052  RH  074%=      5-min Rain = 0
KDC1 091851Z 12001KT 10/05 A3036 RMK A01 T00970054  RH  075%=      5-min Rain = 0
KDC1 091852Z 13003KT 10/06 A3036 RMK A01 T00980056  RH  075%=      5-min Rain = 0
KDC1 091853Z 11002KT 10/05 A3036 RMK A01 T00980052  RH  073%=      5-min Rain = 0
KDC1 091854Z 09002KT 10/05 A3036 RMK A01 T00960053  RH  074%=      5-min Rain = 0
KDC1 091855Z 12004KT 10/06 A3036 RMK A01 T00960057  RH  076%=      5-min Rain = 0
KDC1 091856Z 15004KT 10/06 A3036 RMK A01 T00980062  RH  078%=      5-min Rain = 0
KDC1 091857Z 15003KT 10/06 A3036 RMK A01 T01000058  RH  075%=      5-min Rain = 0
KDC1 091858Z 15002KT 10/06 A3036 RMK A01 T00990056  RH  075%=      5-min Rain = 0
KDC1 091859Z 10001KT 10/06 A3036 RMK A01 T00990058  RH  075%=      5-min Rain = 0
KDC1 091900Z 09003KT 10/06 A3036 RMK A01 T01000056  RH  074%=      5-min Rain = 0
KDC1 091901Z 08002KT 10/05 A3036 RMK A01 T00980052  RH  073%=      5-min Rain = 0
KDC1 091902Z 10003KT 10/05 A3036 RMK A01 T00970054  RH  074%=      5-min Rain = 0
KDC1 091903Z 11003KT 10/06 A3036 RMK A01 T00970056  RH  076%=      5-min Rain = 0
KDC1 091904Z 14002KT 10/05 A3036 RMK A01 T00970054  RH  074%=      5-min Rain = 0
KDC1 091905Z 08002KT 10/05 A3035 RMK A01 T00980054  RH  074%=      5-min Rain = 0
KDC1 091906Z 11003KT 10/06 A3035 RMK A01 T00990057  RH  075%=      5-min Rain = 0
KDC1 091907Z 12003KT 10/06 A3035 RMK A01 T00990056  RH  074%=      5-min Rain = 0
KDC1 091908Z 13003KT 10/05 A3035 RMK A01 T00990053  RH  073%=      5-min Rain = 0
KDC1 091909Z 10001KT 10/05 A3035 RMK A01 T00980052  RH  073%=      5-min Rain = 0
KDC1 091910Z 09001KT 10/05 A3035 RMK A01 T00970053  RH  074%=      5-min Rain = 0
KDC1 091911Z 07002KT 10/05 A3035 RMK A01 T00970053  RH  074%=      5-min Rain = 0
KDC1 091912Z 09003KT 10/06 A3035 RMK A01 T00980056  RH  075%=      5-min Rain = 0
KDC1 091913Z 09003KT 10/06 A3035 RMK A01 T00990057  RH  075%=      5-min Rain = 0
KDC1 091914Z 08003KT 10/06 A3035 RMK A01 T01000056  RH  074%=      5-min Rain = 0
KDC1 091915Z 09003KT 10/06 A3035 RMK A01 T00990058  RH  076%=      5-min Rain = 0
KDC1 091916Z 12004KT 10/06 A3035 RMK A01 T01000059  RH  076%=      5-min Rain = 0
KDC1 091917Z 11005KT 10/06 A3035 RMK A01 T01000058  RH  075%=      5-min Rain = 0
KDC1 091918Z 11004KT 10/06 A3035 RMK A01 T00990055  RH  074%=      5-min Rain = 0
KDC1 091919Z 11003KT 10/06 A3035 RMK A01 T00990056  RH  075%=      5-min Rain = 0
KDC1 091920Z 12003KT 10/06 A3034 RMK A01 T00990060  RH  077%=      5-min Rain = 0
KDC1 091921Z 15004KT 10/06 A3034 RMK A01 T01010062  RH  076%=      5-min Rain = 0
KDC1 091922Z 14003KT 10/06 A3034 RMK A01 T01030059  RH  074%=      5-min Rain = 0
KDC1 091923Z 14003KT 10/06 A3034 RMK A01 T01040061  RH  075%=      5-min Rain = 0
KDC1 091924Z 14004KT 11/07 A3034 RMK A01 T01060066  RH  076%=      5-min Rain = 0
KDC1 091925Z 14004KT 11/06 A3034 RMK A01 T01070062  RH  074%=      5-min Rain = 0
KDC1 091926Z 12004KT 11/06 A3034 RMK A01 T01050056  RH  072%=      5-min Rain = 0
KDC1 091927Z 15003KT 10/06 A3034 RMK A01 T01030057  RH  073%=      5-min Rain = 0
KDC1 091928Z 15002KT 10/06 A3034 RMK A01 T01030057  RH  073%=      5-min Rain = 0
KDC1 091929Z 12003KT 10/06 A3034 RMK A01 T01030056  RH  073%=      5-min Rain = 0
KDC1 091930Z 12004KT 10/06 A3034 RMK A01 T01030057  RH  073%=      5-min Rain = 0
KDC1 091931Z 12005KT 10/06 A3034 RMK A01 T01040060  RH  074%=      5-min Rain = 0
KDC1 091932Z 15005KT 10/06 A3034 RMK A01 T01040060  RH  074%=      5-min Rain = 0
KDC1 091933Z 19003KT 11/06 A3034 RMK A01 T01050059  RH  073%=      5-min Rain = 0
KDC1 091934Z 17004KT 11/06 A3034 RMK A01 T01060057  RH  072%=      5-min Rain = 0
KDC1 091935Z 18002KT 11/06 A3034 RMK A01 T01070057  RH  071%=      5-min Rain = 0
KDC1 091936Z 15002KT 11/05 A3034 RMK A01 T01060054  RH  070%=      5-min Rain = 0
KDC1 091937Z 13003KT 11/06 A3034 RMK A01 T01070056  RH  071%=      5-min Rain = 0
KDC1 091938Z 14003KT 11/06 A3033 RMK A01 T01070056  RH  071%=      5-min Rain = 0
KDC1 091939Z 14003KT 11/06 A3033 RMK A01 T01070055  RH  071%=      5-min Rain = 0
KDC1 091940Z 13003KT 11/06 A3033 RMK A01 T01060057  RH  072%=      5-min Rain = 0
KDC1 091941Z 12003KT 11/06 A3033 RMK A01 T01060056  RH  071%=      5-min Rain = 0
KDC1 091942Z 13002KT 11/06 A3033 RMK A01 T01060055  RH  071%=      5-min Rain = 0
KDC1 091943Z 15003KT 11/06 A3033 RMK A01 T01060055  RH  071%=      5-min Rain = 0
KDC1 091944Z 13002KT 11/06 A3033 RMK A01 T01070058  RH  072%=      5-min Rain = 0
KDC1 091945Z 10002KT 11/06 A3033 RMK A01 T01090061  RH  072%=      5-min Rain = 0
KDC1 091946Z 11004KT 11/06 A3033 RMK A01 T01090061  RH  072%=      5-min Rain = 0
KDC1 091947Z 13004KT 11/06 A3033 RMK A01 T01090059  RH  071%=      5-min Rain = 0
KDC1 091948Z 13004KT 11/06 A3033 RMK A01 T01080059  RH  072%=      5-min Rain = 0
KDC1 091949Z 13003KT 11/06 A3033 RMK A01 T01080058  RH  071%=      5-min Rain = 0
KDC1 091950Z 14003KT 11/06 A3033 RMK A01 T01070055  RH  070%=      5-min Rain = 0
KDC1 091951Z 14003KT 11/06 A3033 RMK A01 T01060055  RH  071%=      5-min Rain = 0
KDC1 091952Z 13002KT 11/06 A3033 RMK A01 T01060057  RH  071%=      5-min Rain = 0
KDC1 091953Z 12002KT 11/06 A3033 RMK A01 T01070056  RH  071%=      5-min Rain = 0
KDC1 091954Z 15004KT 11/06 A3033 RMK A01 T01080058  RH  071%=      5-min Rain = 0
KDC1 091955Z 15004KT 11/06 A3033 RMK A01 T01090058  RH  071%=      5-min Rain = 0
KDC1 091956Z 15003KT 11/06 A3033 RMK A01 T01090057  RH  070%=      5-min Rain = 0
KDC1 091957Z 15003KT 11/06 A3033 RMK A01 T01100057  RH  070%=      5-min Rain = 0
KDC1 091958Z 17002KT 11/06 A3033 RMK A01 T01110057  RH  070%=      5-min Rain = 0
KDC1 091959Z 16003KT 11/06 A3033 RMK A01 T01110056  RH  069%=      5-min Rain = 0
KDC1 092000Z 15003KT 11/06 A3033 RMK A01 T01110058  RH  069%=      5-min Rain = 0
KDC1 092001Z 14003KT 11/06 A3032 RMK A01 T01120056  RH  068%=      5-min Rain = 0
KDC1 092002Z 12002KT 11/06 A3032 RMK A01 T01110055  RH  068%=      5-min Rain = 0
KDC1 092003Z 12003KT 11/06 A3032 RMK A01 T01120057  RH  069%=      5-min Rain = 0
KDC1 092004Z 10001KT 11/06 A3032 RMK A01 T01120055  RH  068%=      5-min Rain = 0
KDC1 092005Z 11002KT 11/06 A3032 RMK A01 T01120058  RH  069%=      5-min Rain = 0
KDC1 092006Z 14004KT 11/06 A3032 RMK A01 T01120058  RH  069%=      5-min Rain = 0
KDC1 092007Z 14005KT 11/06 A3032 RMK A01 T01110056  RH  069%=      5-min Rain = 0
KDC1 092008Z 14003KT 11/06 A3032 RMK A01 T01100055  RH  069%=      5-min Rain = 0
KDC1 092009Z 13002KT 11/06 A3032 RMK A01 T01100057  RH  070%=      5-min Rain = 0
KDC1 092010Z 13002KT 11/06 A3032 RMK A01 T01120061  RH  071%=      5-min Rain = 0
KDC1 092011Z 11002KT 11/06 A3032 RMK A01 T01120057  RH  069%=      5-min Rain = 0
KDC1 092012Z 10002KT 11/06 A3032 RMK A01 T01120055  RH  068%=      5-min Rain = 0
KDC1 092013Z 06001KT 11/05 A3032 RMK A01 T01110053  RH  068%=      5-min Rain = 0
KDC1 092014Z 08002KT 11/06 A3032 RMK A01 T01110056  RH  069%=      5-min Rain = 0
KDC1 092015Z 08002KT 11/06 A3032 RMK A01 T01110056  RH  069%=      5-min Rain = 0
KDC1 092016Z 08003KT 11/05 A3032 RMK A01 T01110054  RH  068%=      5-min Rain = 0
KDC1 092017Z 06001KT 11/05 A3032 RMK A01 T01090053  RH  068%=      5-min Rain = 0
KDC1 092018Z 07002KT 11/05 A3032 RMK A01 T01090054  RH  069%=      5-min Rain = 0
KDC1 092019Z 06002KT 11/06 A3032 RMK A01 T01090055  RH  069%=      5-min Rain = 0
KDC1 092020Z 07001KT 11/06 A3032 RMK A01 T01090057  RH  070%=      5-min Rain = 0
KDC1 092021Z 11003KT 11/06 A3032 RMK A01 T01100058  RH  070%=      5-min Rain = 0
KDC1 092022Z 11002KT 11/05 A3032 RMK A01 T01110054  RH  068%=      5-min Rain = 0
KDC1 092023Z 08002KT 11/05 A3032 RMK A01 T01110054  RH  068%=      5-min Rain = 0
KDC1 092024Z 07002KT 11/05 A3032 RMK A01 T01110054  RH  068%=      5-min Rain = 0
KDC1 092025Z 10001KT 11/06 A3032 RMK A01 T01110056  RH  069%=      5-min Rain = 0
KDC1 092026Z 10003KT 11/05 A3032 RMK A01 T01120054  RH  068%=      5-min Rain = 0
KDC1 092027Z 10003KT 11/06 A3032 RMK A01 T01130058  RH  069%=      5-min Rain = 0
KDC1 092028Z 09003KT 11/06 A3032 RMK A01 T01140058  RH  068%=      5-min Rain = 0
KDC1 092029Z 10003KT 12/06 A3032 RMK A01 T01150059  RH  069%=      5-min Rain = 0
KDC1 092030Z 11002KT 12/06 A3032 RMK A01 T01150060  RH  069%=      5-min Rain = 0
KDC1 092031Z 10002KT 12/06 A3032 RMK A01 T01150057  RH  067%=      5-min Rain = 0
KDC1 092032Z 11002KT 12/06 A3032 RMK A01 T01160060  RH  069%=      5-min Rain = 0
KDC1 092033Z 08002KT 12/06 A3032 RMK A01 T01160058  RH  067%=      5-min Rain = 0
KDC1 092034Z 05002KT 12/06 A3032 RMK A01 T01160055  RH  066%=      5-min Rain = 0
KDC1 092035Z 05002KT 12/06 A3032 RMK A01 T01150056  RH  067%=      5-min Rain = 0
KDC1 092036Z 03002KT 12/06 A3032 RMK A01 T01150055  RH  067%=      5-min Rain = 0
KDC1 092037Z 02002KT 11/05 A3032 RMK A01 T01140054  RH  067%=      5-min Rain = 0
KDC1 092038Z 01003KT 11/06 A3032 RMK A01 T01130055  RH  067%=      5-min Rain = 0
KDC1 092039Z 03003KT 11/06 A3032 RMK A01 T01130056  RH  068%=      5-min Rain = 0
KDC1 092040Z 01003KT 11/06 A3032 RMK A01 T01130055  RH  068%=      5-min Rain = 0
KDC1 092041Z 01002KT 11/05 A3032 RMK A01 T01120054  RH  067%=      5-min Rain = 0
KDC1 092042Z 05002KT 11/05 A3032 RMK A01 T01120054  RH  067%=      5-min Rain = 0
KDC1 092043Z 07000KT 11/05 A3032 RMK A01 T01130052  RH  066%=      5-min Rain = 0
KDC1 092044Z 00000KT 11/05 A3032 RMK A01 T01140053  RH  066%=      5-min Rain = 0
KDC1 092045Z 00000KT 12/05 A3032 RMK A01 T01150053  RH  066%=      5-min Rain = 0
KDC1 092046Z 00000KT 12/05 A3032 RMK A01 T01160054  RH  066%=      5-min Rain = 0
KDC1 092047Z 31001KT 12/06 A3032 RMK A01 T01200055  RH  064%=      5-min Rain = 0
KDC1 092048Z 34001KT 12/06 A3032 RMK A01 T01220056  RH  064%=      5-min Rain = 0
KDC1 092049Z 32001KT 12/06 A3032 RMK A01 T01220057  RH  064%=      5-min Rain = 0
KDC1 092050Z 31001KT 12/05 A3032 RMK A01 T01210054  RH  063%=      5-min Rain = 0
KDC1 092051Z 29001KT 12/05 A3032 RMK A01 T01200054  RH  064%=      5-min Rain = 0
KDC1 092052Z 27001KT 12/06 A3032 RMK A01 T01200058  RH  066%=      5-min Rain = 0
KDC1 092053Z 26000KT 12/06 A3032 RMK A01 T01210055  RH  064%=      5-min Rain = 0
KDC1 092054Z 13000KT 12/06 A3031 RMK A01 T01230058  RH  064%=      5-min Rain = 0
KDC1 092055Z 09002KT 13/06 A3031 RMK A01 T01250060  RH  064%=      5-min Rain = 0
KDC1 092056Z 11001KT 13/06 A3031 RMK A01 T01250055  RH  062%=      5-min Rain = 0
KDC1 092057Z 10001KT 12/05 A3031 RMK A01 T01240054  RH  063%=      5-min Rain = 0
KDC1 092058Z 07001KT 12/06 A3031 RMK A01 T01240058  RH  064%=      5-min Rain = 0
KDC1 092059Z 11002KT 12/06 A3031 RMK A01 T01240059  RH  065%=      5-min Rain = 0
KDC1 092100Z 12003KT 12/06 A3031 RMK A01 T01240057  RH  064%=      5-min Rain = 0
KDC1 092101Z 11003KT 12/06 A3031 RMK A01 T01230061  RH  066%=      5-min Rain = 0
KDC1 092102Z 10002KT 12/06 A3031 RMK A01 T01230056  RH  063%=      5-min Rain = 0
KDC1 092103Z 13002KT 12/06 A3031 RMK A01 T01220055  RH  063%=      5-min Rain = 0
KDC1 092104Z 14002KT 12/06 A3031 RMK A01 T01210056  RH  064%=      5-min Rain = 0
KDC1 092105Z 15002KT 12/06 A3031 RMK A01 T01220056  RH  064%=      5-min Rain = 0
KDC1 092106Z 14002KT 12/06 A3031 RMK A01 T01230057  RH  064%=      5-min Rain = 0
KDC1 092107Z 11002KT 12/06 A3031 RMK A01 T01230056  RH  063%=      5-min Rain = 0
KDC1 092108Z 11002KT 12/06 A3031 RMK A01 T01240057  RH  064%=      5-min Rain = 0
KDC1 092109Z 12002KT 12/06 A3031 RMK A01 T01240055  RH  063%=      5-min Rain = 0
KDC1 092110Z 12002KT 12/06 A3031 RMK A01 T01220055  RH  063%=      5-min Rain = 0
KDC1 092111Z 14003KT 12/06 A3031 RMK A01 T01220057  RH  064%=      5-min Rain = 0
KDC1 092112Z 14003KT 12/05 A3031 RMK A01 T01210052  RH  063%=      5-min Rain = 0
KDC1 092113Z 14003KT 12/05 A3031 RMK A01 T01200054  RH  064%=      5-min Rain = 0
KDC1 092114Z 13003KT 12/06 A3031 RMK A01 T01220056  RH  064%=      5-min Rain = 0
KDC1 092115Z 14004KT 12/05 A3031 RMK A01 T01220053  RH  063%=      5-min Rain = 0
KDC1 092116Z 15003KT 12/05 A3031 RMK A01 T01230053  RH  062%=      5-min Rain = 0
KDC1 092117Z 11003KT 12/05 A3031 RMK A01 T01220054  RH  063%=      5-min Rain = 0
KDC1 092118Z 11002KT 12/05 A3031 RMK A01 T01220050  RH  062%=      5-min Rain = 0
KDC1 092119Z 10001KT 12/05 A3031 RMK A01 T01210051  RH  062%=      5-min Rain = 0
KDC1 092120Z 12001KT 12/05 A3031 RMK A01 T01210053  RH  063%=      5-min Rain = 0
KDC1 092121Z 14002KT 12/06 A3031 RMK A01 T01220055  RH  063%=      5-min Rain = 0
KDC1 092122Z 15002KT 12/05 A303 RMK A01 T01230052  RH  062%=      5-min Rain = 0
KDC1 092123Z 13002KT 13/06 A303 RMK A01 T01250055  RH  063%=      5-min Rain = 0
KDC1 092124Z 13002KT 13/06 A303 RMK A01 T01250055  RH  062%=      5-min Rain = 0
KDC1 092125Z 14002KT 13/05 A303 RMK A01 T01250053  RH  061%=      5-min Rain = 0
KDC1 092126Z 15002KT 13/06 A303 RMK A01 T01260055  RH  062%=      5-min Rain = 0
KDC1 092127Z 18003KT 13/05 A303 RMK A01 T01250054  RH  062%=      5-min Rain = 0
KDC1 092128Z 19002KT 13/05 A303 RMK A01 T01250054  RH  062%=      5-min Rain = 0
KDC1 092129Z 09002KT 13/06 A303 RMK A01 T01260058  RH  063%=      5-min Rain = 0
KDC1 092130Z 07003KT 13/06 A303 RMK A01 T01260055  RH  062%=      5-min Rain = 0
KDC1 092131Z 07003KT 12/05 A303 RMK A01 T01240054  RH  062%=      5-min Rain = 0
KDC1 092132Z 05003KT 12/06 A303 RMK A01 T01230055  RH  063%=      5-min Rain = 0
KDC1 092133Z 05003KT 12/06 A303 RMK A01 T01220055  RH  063%=      5-min Rain = 0
KDC1 092134Z 09003KT 12/06 A303 RMK A01 T01220057  RH  064%=      5-min Rain = 0
KDC1 092135Z 10002KT 12/06 A303 RMK A01 T01230056  RH  064%=      5-min Rain = 0
KDC1 092136Z 11003KT 12/05 A303 RMK A01 T01230054  RH  063%=      5-min Rain = 0
KDC1 092137Z 16003KT 12/06 A303 RMK A01 T01240057  RH  064%=      5-min Rain = 0
KDC1 092138Z 17003KT 12/06 A303 RMK A01 T01240058  RH  064%=      5-min Rain = 0
KDC1 092139Z 19002KT 12/06 A303 RMK A01 T01240056  RH  063%=      5-min Rain = 0
KDC1 092140Z 15002KT 13/06 A303 RMK A01 T01250055  RH  062%=      5-min Rain = 0
KDC1 092141Z 14003KT 13/05 A303 RMK A01 T01260054  RH  062%=      5-min Rain = 0
KDC1 092142Z 12003KT 13/05 A303 RMK A01 T01270054  RH  061%=      5-min Rain = 0
KDC1 092143Z 11004KT 13/06 A303 RMK A01 T01260055  RH  062%=      5-min Rain = 0
KDC1 092144Z 13004KT 13/06 A303 RMK A01 T01260059  RH  064%=      5-min Rain = 0
KDC1 092145Z 12003KT 13/06 A303 RMK A01 T01260060  RH  064%=      5-min Rain = 0
KDC1 092146Z 11003KT 13/06 A303 RMK A01 T01260056  RH  062%=      5-min Rain = 0
KDC1 092147Z 10003KT 13/06 A303 RMK A01 T01260056  RH  062%=      5-min Rain = 0
KDC1 092148Z 12003KT 12/06 A303 RMK A01 T01240055  RH  062%=      5-min Rain = 0
KDC1 092149Z 12005KT 12/06 A303 RMK A01 T01240059  RH  064%=      5-min Rain = 0
KDC1 092150Z 11004KT 12/06 A303 RMK A01 T01240057  RH  063%=      5-min Rain = 0
KDC1 092151Z 11003KT 12/05 A303 RMK A01 T01230054  RH  063%=      5-min Rain = 0
KDC1 092152Z 10004KT 12/05 A303 RMK A01 T01230053  RH  062%=      5-min Rain = 0
KDC1 092153Z 10004KT 12/05 A303 RMK A01 T01220051  RH  062%=      5-min Rain = 0
KDC1 092154Z 11004KT 12/05 A303 RMK A01 T01220053  RH  063%=      5-min Rain = 0
KDC1 092155Z 10003KT 12/05 A303 RMK A01 T01220052  RH  063%=      5-min Rain = 0
KDC1 092156Z 12003KT 12/05 A303 RMK A01 T01220050  RH  062%=      5-min Rain = 0
KDC1 092157Z 12003KT 12/05 A303 RMK A01 T01220051  RH  062%=      5-min Rain = 0
KDC1 092158Z 14004KT 12/05 A303 RMK A01 T01220053  RH  063%=      5-min Rain = 0
KDC1 092159Z 13004KT 12/05 A303 RMK A01 T01220053  RH  063%=      5-min Rain = 0
KDC1 092200Z 14004KT 12/06 A303 RMK A01 T01220055  RH  063%=      5-min Rain = 0
KDC1 092201Z 13003KT 12/05 A303 RMK A01 T01230053  RH  063%=      5-min Rain = 0
KDC1 092202Z 11003KT 12/05 A303 RMK A01 T01230053  RH  062%=      5-min Rain = 0
KDC1 092203Z 13004KT 12/05 A303 RMK A01 T01230052  RH  062%=      5-min Rain = 0
KDC1 092204Z 13003KT 12/05 A303 RMK A01 T01230051  RH  062%=      5-min Rain = 0
KDC1 092205Z 12003KT 12/05 A303 RMK A01 T01230053  RH  063%=      5-min Rain = 0
KDC1 092206Z 10005KT 12/06 A303 RMK A01 T01230055  RH  063%=      5-min Rain = 0
KDC1 092207Z 10004KT 12/05 A303 RMK A01 T01240053  RH  062%=      5-min Rain = 0
KDC1 092208Z 10003KT 12/05 A303 RMK A01 T01240053  RH  062%=      5-min Rain = 0
KDC1 092209Z 09004KT 12/05 A303 RMK A01 T01230053  RH  062%=      5-min Rain = 0
KDC1 092210Z 08005KT 12/05 A303 RMK A01 T01230052  RH  062%=      5-min Rain = 0
KDC1 092211Z 08005KT 12/05 A303 RMK A01 T01230053  RH  062%=      5-min Rain = 0
KDC1 092212Z 09004KT 12/05 A303 RMK A01 T01230049  RH  061%=      5-min Rain = 0
KDC1 092213Z 10002KT 12/05 A303 RMK A01 T01230052  RH  062%=      5-min Rain = 0
KDC1 092214Z 10003KT 12/05 A303 RMK A01 T01230053  RH  063%=      5-min Rain = 0
KDC1 092215Z 11004KT 12/05 A303 RMK A01 T01240053  RH  062%=      5-min Rain = 0
KDC1 092216Z 11003KT 12/05 A303 RMK A01 T01240050  RH  061%=      5-min Rain = 0
KDC1 092217Z 11004KT 12/05 A303 RMK A01 T01240051  RH  061%=      5-min Rain = 0
KDC1 092218Z 13004KT 12/06 A303 RMK A01 T01240055  RH  063%=      5-min Rain = 0
KDC1 092219Z 13003KT 12/05 A303 RMK A01 T01240049  RH  060%=      5-min Rain = 0
KDC1 092220Z 12001KT 12/05 A303 RMK A01 T01230047  RH  060%=      5-min Rain = 0
KDC1 092221Z 11002KT 12/05 A303 RMK A01 T01230051  RH  061%=      5-min Rain = 0
KDC1 092222Z 11003KT 12/05 A303 RMK A01 T01240052  RH  062%=      5-min Rain = 0
KDC1 092223Z 11004KT 12/05 A303 RMK A01 T01240051  RH  061%=      5-min Rain = 0
KDC1 092224Z 11003KT 12/05 A303 RMK A01 T01240052  RH  061%=      5-min Rain = 0
KDC1 092225Z 12003KT 12/05 A303 RMK A01 T01240052  RH  062%=      5-min Rain = 0
KDC1 092226Z 12005KT 12/05 A303 RMK A01 T01240053  RH  062%=      5-min Rain = 0
KDC1 092227Z 13005KT 12/06 A303 RMK A01 T01240058  RH  064%=      5-min Rain = 0
KDC1 092228Z 12005KT 12/06 A303 RMK A01 T01240057  RH  064%=      5-min Rain = 0
KDC1 092229Z 11004KT 12/05 A303 RMK A01 T01240052  RH  062%=      5-min Rain = 0
KDC1 092230Z 11004KT 12/05 A303 RMK A01 T01230052  RH  062%=      5-min Rain = 0
KDC1 092231Z 12003KT 12/05 A303 RMK A01 T01230053  RH  062%=      5-min Rain = 0
KDC1 092232Z 12004KT 12/05 A303 RMK A01 T01230051  RH  061%=      5-min Rain = 0
KDC1 092233Z 12003KT 12/05 A303 RMK A01 T01230054  RH  063%=      5-min Rain = 0
KDC1 092234Z 12003KT 12/05 A303 RMK A01 T01230051  RH  061%=      5-min Rain = 0
KDC1 092235Z 12004KT 12/05 A303 RMK A01 T01230050  RH  061%=      5-min Rain = 0
KDC1 092236Z 12004KT 12/05 A303 RMK A01 T01230049  RH  060%=      5-min Rain = 0
KDC1 092237Z 12004KT 12/05 A303 RMK A01 T01230051  RH  062%=      5-min Rain = 0
KDC1 092238Z 11003KT 12/05 A303 RMK A01 T01230053  RH  062%=      5-min Rain = 0
KDC1 092239Z 13004KT 12/05 A303 RMK A01 T01230052  RH  062%=      5-min Rain = 0
KDC1 092240Z 13005KT 12/06 A303 RMK A01 T01240058  RH  064%=      5-min Rain = 0
KDC1 092241Z 13006KT 12/06 A303 RMK A01 T01240059  RH  064%=      5-min Rain = 0
KDC1 092242Z 12005KT 12/06 A303 RMK A01 T01240055  RH  063%=      5-min Rain = 0
KDC1 092243Z 11004KT 12/05 A303 RMK A01 T01230054  RH  063%=      5-min Rain = 0
KDC1 092244Z 12004KT 12/06 A303 RMK A01 T01230058  RH  064%=      5-min Rain = 0
KDC1 092245Z 13006KT 12/06 A303 RMK A01 T01230058  RH  064%=      5-min Rain = 0
KDC1 092246Z 14007KT 12/06 A303 RMK A01 T01220057  RH  064%=      5-min Rain = 0
KDC1 092247Z 13006KT 12/06 A303 RMK A01 T01210056  RH  064%=      5-min Rain = 0
KDC1 092248Z 12005KT 12/06 A303 RMK A01 T01200058  RH  065%=      5-min Rain = 0
KDC1 092249Z 12004KT 12/06 A303 RMK A01 T01210057  RH  065%=      5-min Rain = 0
KDC1 092250Z 12006KT 12/06 A303 RMK A01 T01210060  RH  067%=      5-min Rain = 0
KDC1 092251Z 13005KT 12/06 A303 RMK A01 T01200055  RH  064%=      5-min Rain = 0
KDC1 092252Z 12005KT 12/06 A303 RMK A01 T01210056  RH  065%=      5-min Rain = 0
KDC1 092253Z 12004KT 12/05 A303 RMK A01 T01200054  RH  064%=      5-min Rain = 0
KDC1 092254Z 12004KT 12/06 A303 RMK A01 T01200055  RH  064%=      5-min Rain = 0
KDC1 092255Z 11004KT 12/05 A303 RMK A01 T01200053  RH  064%=      5-min Rain = 0
KDC1 092256Z 11003KT 12/05 A303 RMK A01 T01200054  RH  064%=      5-min Rain = 0
KDC1 092257Z 11004KT 12/05 A303 RMK A01 T01200054  RH  064%=      5-min Rain = 0
KDC1 092258Z 11005KT 12/05 A303 RMK A01 T01200052  RH  063%=      5-min Rain = 0
KDC1 092259Z 10004KT 12/05 A303 RMK A01 T01200053  RH  063%=      5-min Rain = 0
KDC1 092300Z 11004KT 12/05 A303 RMK A01 T01200052  RH  063%=      5-min Rain = 0
KDC1 092301Z 11004KT 12/05 A303 RMK A01 T01200054  RH  064%=      5-min Rain = 0
KDC1 092302Z 12003KT 12/06 A303 RMK A01 T01200058  RH  066%=      5-min Rain = 0
KDC1 092303Z 12004KT 12/06 A303 RMK A01 T01200057  RH  065%=      5-min Rain = 0
KDC1 092304Z 11004KT 12/06 A303 RMK A01 T01190056  RH  065%=      5-min Rain = 0
KDC1 092305Z 11004KT 12/06 A303 RMK A01 T01200056  RH  065%=      5-min Rain = 0
KDC1 092306Z 12004KT 12/05 A303 RMK A01 T01190054  RH  065%=      5-min Rain = 0
KDC1 092307Z 13004KT 12/06 A303 RMK A01 T01190059  RH  067%=      5-min Rain = 0
KDC1 092308Z 13004KT 12/06 A303 RMK A01 T01190060  RH  067%=      5-min Rain = 0
KDC1 092309Z 12004KT 12/06 A303 RMK A01 T01180058  RH  066%=      5-min Rain = 0
KDC1 092310Z 12004KT 12/06 A303 RMK A01 T01180057  RH  066%=      5-min Rain = 0
KDC1 092311Z 12004KT 12/06 A303 RMK A01 T01170056  RH  066%=      5-min Rain = 0
KDC1 092312Z 12004KT 12/06 A303 RMK A01 T01170056  RH  066%=      5-min Rain = 0
KDC1 092313Z 12004KT 12/06 A303 RMK A01 T01160055  RH  066%=      5-min Rain = 0
KDC1 092314Z 12004KT 12/06 A303 RMK A01 T01160057  RH  067%=      5-min Rain = 0
KDC1 092315Z 13004KT 12/06 A303 RMK A01 T01150057  RH  067%=      5-min Rain = 0
KDC1 092316Z 12003KT 12/06 A303 RMK A01 T01150058  RH  068%=      5-min Rain = 0
KDC1 092317Z 12004KT 12/06 A303 RMK A01 T01150062  RH  070%=      5-min Rain = 0
KDC1 092318Z 12003KT 11/06 A3031 RMK A01 T01140063  RH  071%=      5-min Rain = 0
KDC1 092319Z 12003KT 11/06 A3031 RMK A01 T01130060  RH  070%=      5-min Rain = 0
KDC1 092320Z 12003KT 11/06 A3031 RMK A01 T01120061  RH  071%=      5-min Rain = 0
KDC1 092321Z 12003KT 11/06 A3031 RMK A01 T01120061  RH  071%=      5-min Rain = 0
KDC1 092322Z 12004KT 11/06 A3031 RMK A01 T01110061  RH  072%=      5-min Rain = 0
KDC1 092323Z 13004KT 11/06 A3031 RMK A01 T01100062  RH  072%=      5-min Rain = 0
KDC1 092324Z 13004KT 11/06 A3031 RMK A01 T01090061  RH  072%=      5-min Rain = 0
KDC1 092325Z 13004KT 11/06 A3031 RMK A01 T01080061  RH  073%=      5-min Rain = 0
KDC1 092326Z 14004KT 11/06 A3031 RMK A01 T01080060  RH  073%=      5-min Rain = 0
KDC1 092327Z 13004KT 11/06 A3031 RMK A01 T01070061  RH  073%=      5-min Rain = 0
KDC1 092328Z 13004KT 11/06 A3031 RMK A01 T01060059  RH  073%=      5-min Rain = 0
KDC1 092329Z 13004KT 11/06 A3031 RMK A01 T01060059  RH  073%=      5-min Rain = 0
KDC1 092330Z 13004KT 11/06 A3031 RMK A01 T01050059  RH  073%=      5-min Rain = 0
KDC1 092331Z 13004KT 10/06 A3031 RMK A01 T01040060  RH  074%=      5-min Rain = 0
KDC1 092332Z 13004KT 10/06 A3031 RMK A01 T01030060  RH  075%=      5-min Rain = 0
KDC1 092333Z 13004KT 10/06 A3031 RMK A01 T01020060  RH  075%=      5-min Rain = 0
KDC1 092334Z 13004KT 10/06 A3031 RMK A01 T01020060  RH  075%=      5-min Rain = 0
KDC1 092335Z 13004KT 10/06 A3031 RMK A01 T01010060  RH  076%=      5-min Rain = 0
KDC1 092336Z 13004KT 10/06 A3031 RMK A01 T01000060  RH  076%=      5-min Rain = 0
KDC1 092337Z 13004KT 10/06 A3031 RMK A01 T00990060  RH  077%=      5-min Rain = 0
KDC1 092338Z 13004KT 10/06 A3031 RMK A01 T00980059  RH  077%=      5-min Rain = 0
KDC1 092339Z 13004KT 10/06 A3031 RMK A01 T00980059  RH  077%=      5-min Rain = 0
KDC1 092340Z 13004KT 10/06 A303 RMK A01 T00970059  RH  077%=      5-min Rain = 0
KDC1 092341Z 13004KT 10/06 A303 RMK A01 T00970059  RH  077%=      5-min Rain = 0
KDC1 092342Z 13004KT 10/06 A303 RMK A01 T00960059  RH  078%=      5-min Rain = 0
KDC1 092343Z 13004KT 10/06 A3031 RMK A01 T00950058  RH  078%=      5-min Rain = 0
KDC1 092344Z 13004KT 09/06 A3031 RMK A01 T00940058  RH  078%=      5-min Rain = 0
KDC1 092345Z 13004KT 09/06 A3031 RMK A01 T00930058  RH  079%=      5-min Rain = 0
KDC1 092346Z 13004KT 09/06 A303 RMK A01 T00920058  RH  079%=      5-min Rain = 0
KDC1 092347Z 14004KT 09/06 A303 RMK A01 T00920059  RH  080%=      5-min Rain = 0
KDC1 092348Z 14004KT 09/06 A3031 RMK A01 T00920058  RH  079%=      5-min Rain = 0
KDC1 092349Z 14004KT 09/06 A3031 RMK A01 T00920057  RH  079%=      5-min Rain = 0
KDC1 092350Z 14004KT 09/06 A3031 RMK A01 T00920058  RH  079%=      5-min Rain = 0
KDC1 092351Z 14004KT 09/06 A3031 RMK A01 T00920056  RH  078%=      5-min Rain = 0
KDC1 092352Z 14004KT 09/05 A3031 RMK A01 T00940052  RH  075%=      5-min Rain = 0
KDC1 092353Z 14004KT 10/05 A3031 RMK A01 T00950050  RH  073%=      5-min Rain = 0
KDC1 092354Z 14004KT 10/05 A3031 RMK A01 T00960049  RH  073%=      5-min Rain = 0
KDC1 092355Z 14004KT 10/05 A3031 RMK A01 T00960049  RH  072%=      5-min Rain = 0
KDC1 092356Z 14004KT 10/05 A303 RMK A01 T00960049  RH  072%=      5-min Rain = 0
KDC1 092357Z 14004KT 10/05 A303 RMK A01 T00960049  RH  072%=      5-min Rain = 0
KDC1 092358Z 14004KT 10/05 A303 RMK A01 T00970050  RH  073%=      5-min Rain = 0
KDC1 092359Z 15004KT 10/05 A303 RMK A01 T00970051  RH  073%=      5-min Rain = 0
KDC1 100000Z 14005KT 10/05 A303 RMK A01 T00960050  RH  073%=      5-min Rain = 0
KDC1 100001Z 15004KT 10/05 A303 RMK A01 T00950048  RH  072%=      5-min Rain = 0
KDC1 100002Z 15004KT 10/05 A3031 RMK A01 T00950048  RH  072%=      5-min Rain = 0
KDC1 100003Z 16004KT 10/05 A3031 RMK A01 T00950049  RH  073%=      5-min Rain = 0
KDC1 100004Z 16004KT 09/05 A3031 RMK A01 T00940050  RH  074%=      5-min Rain = 0
KDC1 100005Z 16004KT 09/05 A3031 RMK A01 T00940050  RH  074%=      5-min Rain = 0
KDC1 100006Z 16004KT 09/05 A3031 RMK A01 T00940050  RH  074%=      5-min Rain = 0
KDC1 100007Z 16004KT 09/05 A3031 RMK A01 T00940050  RH  074%=      5-min Rain = 0
KDC1 100008Z 16004KT 09/05 A3031 RMK A01 T00940050  RH  074%=      5-min Rain = 0
KDC1 100009Z 16003KT 09/05 A3031 RMK A01 T00940050  RH  074%=      5-min Rain = 0
KDC1 100010Z 16004KT 09/05 A3031 RMK A01 T00940051  RH  074%=      5-min Rain = 0
KDC1 100011Z 15003KT 09/05 A3031 RMK A01 T00940052  RH  075%=      5-min Rain = 0
KDC1 100012Z 15003KT 09/05 A3031 RMK A01 T00940051  RH  074%=      5-min Rain = 0
KDC1 100013Z 15004KT 09/05 A3031 RMK A01 T00940050  RH  074%=      5-min Rain = 0
KDC1 100014Z 15004KT 09/05 A3031 RMK A01 T00930050  RH  075%=      5-min Rain = 0
KDC1 100015Z 15004KT 09/05 A3031 RMK A01 T00920051  RH  075%=      5-min Rain = 0
KDC1 100016Z 15004KT 09/05 A3031 RMK A01 T00910050  RH  076%=      5-min Rain = 0
KDC1 100017Z 15004KT 09/05 A3031 RMK A01 T00900050  RH  076%=      5-min Rain = 0
KDC1 100018Z 15004KT 09/05 A3031 RMK A01 T00900051  RH  077%=      5-min Rain = 0
KDC1 100019Z 16004KT 09/05 A3031 RMK A01 T00900051  RH  077%=      5-min Rain = 0
KDC1 100020Z 16004KT 09/05 A3031 RMK A01 T00900050  RH  076%=      5-min Rain = 0
KDC1 100021Z 16004KT 09/05 A3031 RMK A01 T00900051  RH  076%=      5-min Rain = 0
KDC1 100022Z 16003KT 09/05 A3031 RMK A01 T00910051  RH  076%=      5-min Rain = 0
KDC1 100023Z 16003KT 09/05 A3031 RMK A01 T00910051  RH  076%=      5-min Rain = 0
KDC1 100024Z 16003KT 09/05 A3031 RMK A01 T00920051  RH  076%=      5-min Rain = 0
KDC1 100025Z 16003KT 09/05 A3031 RMK A01 T00920051  RH  076%=      5-min Rain = 0
KDC1 100026Z 16003KT 09/05 A3031 RMK A01 T00920052  RH  076%=      5-min Rain = 0
KDC1 100027Z 16003KT 09/05 A3031 RMK A01 T00910051  RH  076%=      5-min Rain = 0
KDC1 100028Z 16003KT 09/05 A3032 RMK A01 T00910051  RH  076%=      5-min Rain = 0
KDC1 100029Z 16003KT 09/05 A3032 RMK A01 T00910051  RH  076%=      5-min Rain = 0
KDC1 100030Z 17003KT 09/05 A3032 RMK A01 T00920051  RH  076%=      5-min Rain = 0
KDC1 100031Z 16003KT 09/05 A3032 RMK A01 T00920050  RH  075%=      5-min Rain = 0
KDC1 100032Z 17003KT 09/05 A3032 RMK A01 T00920050  RH  075%=      5-min Rain = 0
KDC1 100033Z 17003KT 09/05 A3032 RMK A01 T00920049  RH  075%=      5-min Rain = 0
KDC1 100034Z 17003KT 09/05 A3032 RMK A01 T00920049  RH  075%=      5-min Rain = 0
KDC1 100035Z 17002KT 09/05 A3032 RMK A01 T00920049  RH  075%=      5-min Rain = 0
KDC1 100036Z 18002KT 09/05 A3032 RMK A01 T00920049  RH  075%=      5-min Rain = 0
KDC1 100037Z 18002KT 09/05 A3032 RMK A01 T00920049  RH  075%=      5-min Rain = 0
KDC1 100038Z 18002KT 09/05 A3032 RMK A01 T00910049  RH  075%=      5-min Rain = 0
KDC1 100039Z 18002KT 09/05 A3032 RMK A01 T00910048  RH  075%=      5-min Rain = 0
KDC1 100040Z 18002KT 09/05 A3032 RMK A01 T00900048  RH  075%=      5-min Rain = 0
KDC1 100041Z 19002KT 09/05 A3032 RMK A01 T00900048  RH  075%=      5-min Rain = 0
KDC1 100042Z 18002KT 09/05 A3032 RMK A01 T00900049  RH  076%=      5-min Rain = 0
KDC1 100043Z 18002KT 09/05 A3032 RMK A01 T00890050  RH  077%=      5-min Rain = 0
KDC1 100044Z 18003KT 09/05 A3032 RMK A01 T00870049  RH  077%=      5-min Rain = 0
KDC1 100045Z 19003KT 09/05 A3032 RMK A01 T00860049  RH  078%=      5-min Rain = 0
KDC1 100046Z 19002KT 09/05 A3032 RMK A01 T00850049  RH  078%=      5-min Rain = 0
KDC1 100047Z 20002KT 08/05 A3032 RMK A01 T00840049  RH  078%=      5-min Rain = 0
KDC1 100048Z 20002KT 08/05 A3032 RMK A01 T00840049  RH  079%=      5-min Rain = 0
KDC1 100049Z 20002KT 08/05 A3032 RMK A01 T00830050  RH  080%=      5-min Rain = 0
KDC1 100050Z 20002KT 08/05 A3032 RMK A01 T00830051  RH  081%=      5-min Rain = 0
KDC1 100051Z 20002KT 08/05 A3032 RMK A01 T00820052  RH  082%=      5-min Rain = 0
KDC1 100052Z 20002KT 08/05 A3032 RMK A01 T00810053  RH  082%=      5-min Rain = 0
KDC1 100053Z 20002KT 08/05 A3032 RMK A01 T00800052  RH  083%=      5-min Rain = 0
KDC1 100054Z 20002KT 08/05 A3032 RMK A01 T00790052  RH  083%=      5-min Rain = 0
KDC1 100055Z 20002KT 08/05 A3032 RMK A01 T00780051  RH  083%=      5-min Rain = 0
KDC1 100056Z 21002KT 08/05 A3032 RMK A01 T00780051  RH  083%=      5-min Rain = 0
KDC1 100057Z 20002KT 08/05 A3032 RMK A01 T00770050  RH  083%=      5-min Rain = 0
KDC1 100058Z 20002KT 08/05 A3032 RMK A01 T00770050  RH  083%=      5-min Rain = 0
KDC1 100059Z 20001KT 08/05 A3032 RMK A01 T00770049  RH  083%=      5-min Rain = 0
KDC1 100100Z 21001KT 08/05 A3032 RMK A01 T00770050  RH  083%=      5-min Rain = 0
KDC1 100101Z 22001KT 08/05 A3032 RMK A01 T00770050  RH  083%=      5-min Rain = 0
KDC1 100102Z 23001KT 08/05 A3033 RMK A01 T00770050  RH  083%=      5-min Rain = 0
KDC1 100103Z 25002KT 08/05 A3033 RMK A01 T00770051  RH  084%=      5-min Rain = 0
KDC1 100104Z 25002KT 08/05 A3033 RMK A01 T00750051  RH  085%=      5-min Rain = 0
KDC1 100105Z 26002KT 07/05 A3033 RMK A01 T00720049  RH  085%=      5-min Rain = 0
KDC1 100106Z 25002KT 07/05 A3033 RMK A01 T00680047  RH  086%=      5-min Rain = 0
KDC1 100107Z 25002KT 07/05 A3033 RMK A01 T00650045  RH  087%=      5-min Rain = 0
KDC1 100108Z 25002KT 06/05 A3033 RMK A01 T00640045  RH  088%=      5-min Rain = 0
KDC1 100109Z 25002KT 06/04 A3033 RMK A01 T00620044  RH  088%=      5-min Rain = 0
KDC1 100110Z 25002KT 06/04 A3033 RMK A01 T00610043  RH  088%=      5-min Rain = 0
KDC1 100111Z 25002KT 06/04 A3033 RMK A01 T00600043  RH  089%=      5-min Rain = 0
KDC1 100112Z 24002KT 06/04 A3033 RMK A01 T00600043  RH  089%=      5-min Rain = 0
KDC1 100113Z 24002KT 06/04 A3033 RMK A01 T00600044  RH  090%=      5-min Rain = 0
KDC1 100114Z 24002KT 06/04 A3033 RMK A01 T00600044  RH  090%=      5-min Rain = 0
KDC1 100115Z 25002KT 06/04 A3033 RMK A01 T00600044  RH  090%=      5-min Rain = 0
KDC1 100116Z 25002KT 06/04 A3033 RMK A01 T00600044  RH  090%=      5-min Rain = 0
KDC1 100117Z 25002KT 06/04 A3033 RMK A01 T00590044  RH  090%=      5-min Rain = 0
KDC1 100118Z 25002KT 06/04 A3033 RMK A01 T00590044  RH  090%=      5-min Rain = 0
KDC1 100119Z 25003KT 06/04 A3033 RMK A01 T00590043  RH  090%=      5-min Rain = 0
KDC1 100120Z 25003KT 06/04 A3033 RMK A01 T00580043  RH  090%=      5-min Rain = 0
KDC1 100121Z 26003KT 06/04 A3033 RMK A01 T00580044  RH  091%=      5-min Rain = 0
KDC1 100122Z 25003KT 06/04 A3033 RMK A01 T00580044  RH  091%=      5-min Rain = 0
KDC1 100123Z 26004KT 06/04 A3033 RMK A01 T00580044  RH  091%=      5-min Rain = 0
KDC1 100124Z 27004KT 06/04 A3033 RMK A01 T00580044  RH  091%=      5-min Rain = 0
KDC1 100125Z 28003KT 06/04 A3034 RMK A01 T00570043  RH  090%=      5-min Rain = 0
KDC1 100126Z 27003KT 06/04 A3034 RMK A01 T00570042  RH  090%=      5-min Rain = 0
KDC1 100127Z 26003KT 06/04 A3034 RMK A01 T00560041  RH  091%=      5-min Rain = 0
KDC1 100128Z 25003KT 06/04 A3034 RMK A01 T00550041  RH  091%=      5-min Rain = 0
KDC1 100129Z 25003KT 06/04 A3034 RMK A01 T00550041  RH  091%=      5-min Rain = 0
KDC1 100130Z 24002KT 06/04 A3034 RMK A01 T00550041  RH  091%=      5-min Rain = 0
KDC1 100131Z 24002KT 06/04 A3034 RMK A01 T00550041  RH  091%=      5-min Rain = 0
KDC1 100132Z 24002KT 06/04 A3034 RMK A01 T00560042  RH  091%=      5-min Rain = 0
KDC1 100133Z 25003KT 06/04 A3034 RMK A01 T00560041  RH  090%=      5-min Rain = 0
KDC1 100134Z 25003KT 06/04 A3034 RMK A01 T00560041  RH  090%=      5-min Rain = 0
KDC1 100135Z 25003KT 06/04 A3034 RMK A01 T00560040  RH  090%=      5-min Rain = 0
KDC1 100136Z 25003KT 06/04 A3033 RMK A01 T00550039  RH  089%=      5-min Rain = 0
KDC1 100137Z 25003KT 06/04 A3033 RMK A01 T00550039  RH  089%=      5-min Rain = 0
KDC1 100138Z 25003KT 06/04 A3033 RMK A01 T00550040  RH  090%=      5-min Rain = 0
KDC1 100139Z 25003KT 06/04 A3033 RMK A01 T00560041  RH  090%=      5-min Rain = 0
KDC1 100140Z 26004KT 06/04 A3033 RMK A01 T00570042  RH  090%=      5-min Rain = 0
KDC1 100141Z 26004KT 06/04 A3034 RMK A01 T00580041  RH  089%=      5-min Rain = 0
KDC1 100142Z 26005KT 06/04 A3034 RMK A01 T00570041  RH  089%=      5-min Rain = 0
KDC1 100143Z 26005KT 06/04 A3034 RMK A01 T00560039  RH  089%=      5-min Rain = 0
KDC1 100144Z 26005KT 06/04 A3034 RMK A01 T00550039  RH  090%=      5-min Rain = 0
KDC1 100145Z 26004KT 05/04 A3034 RMK A01 T00540040  RH  090%=      5-min Rain = 0
KDC1 100146Z 26005KT 05/04 A3034 RMK A01 T00540041  RH  091%=      5-min Rain = 0
KDC1 100147Z 26005KT 06/04 A3034 RMK A01 T00550041  RH  091%=      5-min Rain = 0
KDC1 100148Z 26005KT 06/04 A3034 RMK A01 T00560042  RH  091%=      5-min Rain = 0
KDC1 100149Z 26005KT 06/04 A3034 RMK A01 T00580043  RH  090%=      5-min Rain = 0
KDC1 100150Z 26005KT 06/04 A3034 RMK A01 T00600044  RH  089%=      5-min Rain = 0
KDC1 100151Z 26005KT 06/04 A3034 RMK A01 T00600043  RH  089%=      5-min Rain = 0
KDC1 100152Z 26005KT 06/04 A3034 RMK A01 T00590041  RH  088%=      5-min Rain = 0
KDC1 100153Z 27005KT 06/04 A3034 RMK A01 T00560039  RH  088%=      5-min Rain = 0
KDC1 100154Z 27005KT 05/04 A3034 RMK A01 T00540037  RH  089%=      5-min Rain = 0
KDC1 100155Z 27005KT 05/04 A3034 RMK A01 T00520036  RH  089%=      5-min Rain = 0
KDC1 100156Z 27005KT 05/04 A3034 RMK A01 T00500035  RH  090%=      5-min Rain = 0
KDC1 100157Z 27005KT 05/04 A3034 RMK A01 T00490035  RH  090%=      5-min Rain = 0
KDC1 100158Z 27005KT 05/04 A3034 RMK A01 T00480035  RH  091%=      5-min Rain = 0
KDC1 100159Z 27005KT 05/03 A3034 RMK A01 T00470034  RH  091%=      5-min Rain = 0
KDC1 100200Z 28006KT 05/03 A3034 RMK A01 T00470034  RH  091%=      5-min Rain = 0
KDC1 100201Z 28005KT 05/03 A3034 RMK A01 T00460034  RH  091%=      5-min Rain = 0
KDC1 100202Z 28006KT 05/03 A3034 RMK A01 T00460033  RH  092%=      5-min Rain = 0
KDC1 100203Z 28007KT 05/03 A3034 RMK A01 T00450033  RH  092%=      5-min Rain = 0
KDC1 100204Z 28007KT 05/03 A3034 RMK A01 T00450033  RH  092%=      5-min Rain = 0
KDC1 100205Z 28008KT 05/03 A3034 RMK A01 T00450033  RH  092%=      5-min Rain = 0
KDC1 100206Z 28007KT 04/03 A3034 RMK A01 T00440034  RH  093%=      5-min Rain = 0
KDC1 100207Z 28006KT 04/03 A3034 RMK A01 T00440034  RH  093%=      5-min Rain = 0
KDC1 100208Z 28006KT 04/03 A3034 RMK A01 T00440034  RH  093%=      5-min Rain = 0
KDC1 100209Z 29006KT 04/03 A3034 RMK A01 T00440034  RH  093%=      5-min Rain = 0
KDC1 100210Z 29006KT 04/03 A3034 RMK A01 T00440033  RH  093%=      5-min Rain = 0
KDC1 100211Z 28006KT 04/03 A3034 RMK A01 T00440033  RH  093%=      5-min Rain = 0
KDC1 100212Z 28006KT 04/03 A3034 RMK A01 T00440033  RH  093%=      5-min Rain = 0
KDC1 100213Z 27005KT 04/03 A3034 RMK A01 T00430033  RH  093%=      5-min Rain = 0
KDC1 100214Z 28005KT 04/03 A3034 RMK A01 T00440034  RH  093%=      5-min Rain = 0
KDC1 100215Z 28004KT 04/04 A3034 RMK A01 T00440035  RH  093%=      5-min Rain = 0
KDC1 100216Z 28004KT 05/04 A3034 RMK A01 T00450035  RH  093%=      5-min Rain = 0
KDC1 100217Z 28004KT 05/04 A3034 RMK A01 T00450035  RH  093%=      5-min Rain = 0
KDC1 100218Z 28004KT 05/04 A3034 RMK A01 T00450035  RH  093%=      5-min Rain = 0
KDC1 100219Z 28004KT 05/03 A3034 RMK A01 T00450034  RH  093%=      5-min Rain = 0
KDC1 100220Z 28004KT 04/03 A3034 RMK A01 T00440034  RH  093%=      5-min Rain = 0
KDC1 100221Z 28004KT 04/03 A3034 RMK A01 T00440033  RH  093%=      5-min Rain = 0
KDC1 100222Z 28005KT 04/03 A3034 RMK A01 T00440034  RH  093%=      5-min Rain = 0
KDC1 100223Z 28005KT 04/03 A3034 RMK A01 T00440034  RH  093%=      5-min Rain = 0
KDC1 100224Z 28005KT 04/03 A3034 RMK A01 T00440033  RH  093%=      5-min Rain = 0
KDC1 100225Z 28005KT 04/03 A3034 RMK A01 T00440034  RH  093%=      5-min Rain = 0
KDC1 100226Z 28006KT 05/03 A3034 RMK A01 T00450034  RH  093%=      5-min Rain = 0
KDC1 100227Z 29006KT 05/03 A3034 RMK A01 T00450034  RH  093%=      5-min Rain = 0
KDC1 100228Z 29006KT 05/03 A3034 RMK A01 T00450034  RH  092%=      5-min Rain = 0
KDC1 100229Z 28007KT 05/03 A3034 RMK A01 T00450033  RH  092%=      5-min Rain = 0
KDC1 100230Z 28006KT 04/03 A3034 RMK A01 T00440032  RH  092%=      5-min Rain = 0
KDC1 100231Z 28006KT 04/03 A3034 RMK A01 T00440032  RH  092%=      5-min Rain = 0
KDC1 100232Z 28005KT 04/03 A3034 RMK A01 T00440033  RH  093%=      5-min Rain = 0
KDC1 100233Z 28005KT 04/03 A3034 RMK A01 T00440033  RH  093%=      5-min Rain = 0
KDC1 100234Z 28006KT 04/03 A3034 RMK A01 T00440033  RH  093%=      5-min Rain = 0
KDC1 100235Z 29006KT 04/03 A3034 RMK A01 T00440033  RH  093%=      5-min Rain = 0
KDC1 100236Z 29007KT 04/03 A3034 RMK A01 T00430031  RH  092%=      5-min Rain = 0
KDC1 100237Z 28006KT 04/03 A3034 RMK A01 T00420030  RH  092%=      5-min Rain = 0
KDC1 100238Z 28007KT 04/03 A3034 RMK A01 T00410030  RH  093%=      5-min Rain = 0
KDC1 100239Z 28007KT 04/03 A3034 RMK A01 T00410030  RH  093%=      5-min Rain = 0
KDC1 100240Z 28007KT 04/03 A3034 RMK A01 T00410031  RH  093%=      5-min Rain = 0
KDC1 100241Z 29008KT 04/03 A3034 RMK A01 T00410031  RH  093%=      5-min Rain = 0
KDC1 100242Z 28007KT 04/03 A3034 RMK A01 T00420032  RH  093%=      5-min Rain = 0
KDC1 100243Z 28007KT 04/03 A3034 RMK A01 T00420032  RH  093%=      5-min Rain = 0
KDC1 100244Z 28008KT 04/03 A3034 RMK A01 T00420032  RH  093%=      5-min Rain = 0
KDC1 100245Z 28007KT 04/03 A3034 RMK A01 T00410031  RH  093%=      5-min Rain = 0
KDC1 100246Z 29007KT 04/03 A3034 RMK A01 T00410031  RH  093%=      5-min Rain = 0
KDC1 100247Z 29007KT 04/03 A3034 RMK A01 T00410030  RH  093%=      5-min Rain = 0
KDC1 100248Z 28007KT 04/03 A3034 RMK A01 T00410031  RH  093%=      5-min Rain = 0
KDC1 100249Z 28006KT 04/03 A3034 RMK A01 T00410031  RH  093%=      5-min Rain = 0
KDC1 100250Z 28006KT 04/03 A3034 RMK A01 T00410031  RH  093%=      5-min Rain = 0
KDC1 100251Z 28006KT 04/03 A3034 RMK A01 T00410031  RH  093%=      5-min Rain = 0
KDC1 100252Z 28005KT 04/03 A3034 RMK A01 T00410031  RH  093%=      5-min Rain = 0
KDC1 100253Z 28005KT 04/03 A3034 RMK A01 T00410031  RH  093%=      5-min Rain = 0
KDC1 100254Z 28004KT 04/03 A3035 RMK A01 T00410031  RH  093%=      5-min Rain = 0
KDC1 100255Z 28004KT 04/03 A3035 RMK A01 T00420031  RH  093%=      5-min Rain = 0
KDC1 100256Z 28003KT 04/03 A3035 RMK A01 T00420031  RH  093%=      5-min Rain = 0
KDC1 100257Z 29003KT 04/03 A3035 RMK A01 T00420031  RH  093%=      5-min Rain = 0
KDC1 100258Z 29002KT 04/03 A3035 RMK A01 T00420031  RH  092%=      5-min Rain = 0
KDC1 100259Z 30001KT 04/03 A3035 RMK A01 T00410030  RH  093%=      5-min Rain = 0
KDC1 100300Z 30001KT 04/03 A3035 RMK A01 T00410030  RH  092%=      5-min Rain = 0
KDC1 100301Z 30001KT 04/03 A3035 RMK A01 T00400029  RH  093%=      5-min Rain = 0
KDC1 100302Z 29002KT 04/03 A3035 RMK A01 T00400029  RH  093%=      5-min Rain = 0
KDC1 100303Z 29003KT 04/03 A3035 RMK A01 T00400029  RH  093%=      5-min Rain = 0
KDC1 100304Z 29003KT 04/03 A3035 RMK A01 T00400029  RH  093%=      5-min Rain = 0
KDC1 100305Z 30003KT 04/03 A3035 RMK A01 T00400029  RH  093%=      5-min Rain = 0
KDC1 100306Z 30003KT 04/03 A3035 RMK A01 T00400029  RH  093%=      5-min Rain = 0
KDC1 100307Z 29003KT 04/03 A3035 RMK A01 T00400029  RH  093%=      5-min Rain = 0
KDC1 100308Z 29002KT 04/03 A3035 RMK A01 T00400029  RH  093%=      5-min Rain = 0
KDC1 100309Z 29002KT 04/03 A3035 RMK A01 T00400029  RH  093%=      5-min Rain = 0
KDC1 100310Z 30001KT 04/03 A3035 RMK A01 T00400029  RH  093%=      5-min Rain = 0
KDC1 100311Z 30002KT 04/03 A3035 RMK A01 T00400029  RH  093%=      5-min Rain = 0
KDC1 100312Z 31002KT 04/03 A3035 RMK A01 T00400029  RH  093%=      5-min Rain = 0
KDC1 100313Z 32002KT 04/03 A3035 RMK A01 T00400030  RH  093%=      5-min Rain = 0
KDC1 100314Z 31003KT 04/03 A3035 RMK A01 T00400029  RH  093%=      5-min Rain = 0
KDC1 100315Z 31003KT 04/03 A3035 RMK A01 T00400029  RH  092%=      5-min Rain = 0
KDC1 100316Z 30004KT 04/03 A3035 RMK A01 T00400029  RH  093%=      5-min Rain = 0
KDC1 100317Z 30005KT 04/03 A3035 RMK A01 T00400029  RH  093%=      5-min Rain = 0
KDC1 100318Z 29005KT 04/03 A3035 RMK A01 T00400029  RH  093%=      5-min Rain = 0
KDC1 100319Z 29005KT 04/03 A3035 RMK A01 T00400029  RH  093%=      5-min Rain = 0
KDC1 100320Z 29004KT 04/03 A3035 RMK A01 T00400029  RH  093%=      5-min Rain = 0
KDC1 100321Z 29003KT 04/03 A3035 RMK A01 T00380028  RH  093%=      5-min Rain = 0
KDC1 100322Z 29003KT 04/03 A3035 RMK A01 T00380027  RH  093%=      5-min Rain = 0
KDC1 100323Z 29003KT 04/03 A3035 RMK A01 T00370027  RH  093%=      5-min Rain = 0
KDC1 100324Z 29004KT 04/03 A3035 RMK A01 T00360026  RH  093%=      5-min Rain = 0
KDC1 100325Z 28004KT 04/03 A3035 RMK A01 T00350025  RH  093%=      5-min Rain = 0
KDC1 100326Z 28003KT 03/02 A3035 RMK A01 T00340024  RH  093%=      5-min Rain = 0
KDC1 100327Z 28003KT 03/02 A3035 RMK A01 T00330024  RH  093%=      5-min Rain = 0
KDC1 100328Z 28004KT 03/02 A3035 RMK A01 T00330024  RH  094%=      5-min Rain = 0
KDC1 100329Z 28004KT 03/02 A3035 RMK A01 T00330024  RH  094%=      5-min Rain = 0
KDC1 100330Z 28004KT 03/02 A3035 RMK A01 T00330024  RH  094%=      5-min Rain = 0
KDC1 100331Z 28004KT 03/02 A3035 RMK A01 T00320023  RH  094%=      5-min Rain = 0
KDC1 100332Z 28004KT 03/02 A3035 RMK A01 T00310022  RH  094%=      5-min Rain = 0
KDC1 100333Z 28004KT 03/02 A3035 RMK A01 T00310022  RH  094%=      5-min Rain = 0
KDC1 100334Z 28004KT 03/02 A3035 RMK A01 T00310023  RH  094%=      5-min Rain = 0
KDC1 100335Z 28004KT 03/02 A3035 RMK A01 T00310023  RH  095%=      5-min Rain = 0
KDC1 100336Z 28004KT 03/02 A3035 RMK A01 T00300022  RH  095%=      5-min Rain = 0
KDC1 100337Z 28004KT 03/02 A3035 RMK A01 T00300023  RH  095%=      5-min Rain = 0
KDC1 100338Z 29004KT 03/02 A3035 RMK A01 T00310024  RH  095%=      5-min Rain = 0
KDC1 100339Z 29004KT 03/02 A3035 RMK A01 T00310023  RH  095%=      5-min Rain = 0
KDC1 100340Z 29004KT 03/02 A3035 RMK A01 T00310023  RH  095%=      5-min Rain = 0
KDC1 100341Z 29004KT 03/02 A3035 RMK A01 T00300023  RH  095%=      5-min Rain = 0
KDC1 100342Z 29004KT 03/02 A3035 RMK A01 T00300022  RH  095%=      5-min Rain = 0
KDC1 100343Z 29004KT 03/02 A3035 RMK A01 T00290021  RH  095%=      5-min Rain = 0
KDC1 100344Z 29005KT 03/02 A3035 RMK A01 T00280019  RH  094%=      5-min Rain = 0
KDC1 100345Z 29005KT 03/02 A3035 RMK A01 T00260018  RH  094%=      5-min Rain = 0
KDC1 100346Z 28005KT 03/02 A3035 RMK A01 T00260018  RH  094%=      5-min Rain = 0
KDC1 100347Z 28005KT 03/02 A3035 RMK A01 T00250017  RH  095%=      5-min Rain = 0
KDC1 100348Z 29006KT 03/02 A3035 RMK A01 T00250018  RH  095%=      5-min Rain = 0
KDC1 100349Z 29007KT 03/02 A3036 RMK A01 T00250018  RH  095%=      5-min Rain = 0
KDC1 100350Z 29006KT 03/02 A3036 RMK A01 T00260019  RH  095%=      5-min Rain = 0
KDC1 100351Z 29006KT 03/02 A3036 RMK A01 T00270020  RH  096%=      5-min Rain = 0
KDC1 100352Z 29005KT 03/02 A3036 RMK A01 T00270021  RH  096%=      5-min Rain = 0
KDC1 100353Z 29005KT 03/02 A3036 RMK A01 T00270021  RH  096%=      5-min Rain = 0
KDC1 100354Z 30004KT 03/02 A3036 RMK A01 T00270021  RH  096%=      5-min Rain = 0
KDC1 100355Z 32004KT 03/02 A3036 RMK A01 T00280022  RH  096%=      5-min Rain = 0
KDC1 100356Z 34004KT 03/02 A3036 RMK A01 T00280022  RH  096%=      5-min Rain = 0
KDC1 100357Z 31004KT 03/02 A3036 RMK A01 T00280021  RH  096%=      5-min Rain = 0
KDC1 100358Z 30004KT 03/02 A3036 RMK A01 T00280021  RH  096%=      5-min Rain = 0
KDC1 100359Z 31003KT 03/02 A3036 RMK A01 T00280021  RH  096%=      5-min Rain = 0
KDC1 100400Z 32003KT 03/02 A3036 RMK A01 T00270020  RH  095%=      5-min Rain = 0
KDC1 100401Z 33004KT 03/02 A3036 RMK A01 T00270020  RH  095%=      5-min Rain = 0
KDC1 100402Z 32005KT 03/02 A3036 RMK A01 T00260020  RH  095%=      5-min Rain = 0
KDC1 100403Z 31005KT 03/02 A3036 RMK A01 T00260020  RH  096%=      5-min Rain = 0
KDC1 100404Z 31004KT 03/02 A3036 RMK A01 T00260020  RH  096%=      5-min Rain = 0
KDC1 100405Z 32004KT 03/02 A3036 RMK A01 T00260020  RH  096%=      5-min Rain = 0
KDC1 100406Z 33004KT 03/02 A3036 RMK A01 T00270021  RH  096%=      5-min Rain = 0
KDC1 100407Z 33004KT 03/02 A3036 RMK A01 T00270022  RH  096%=      5-min Rain = 0
KDC1 100408Z 34004KT 03/02 A3036 RMK A01 T00280022  RH  096%=      5-min Rain = 0
KDC1 100409Z 34004KT 03/02 A3036 RMK A01 T00290023  RH  096%=      5-min Rain = 0
KDC1 100410Z 35003KT 03/02 A3036 RMK A01 T00290023  RH  096%=      5-min Rain = 0
KDC1 100411Z 01002KT 03/02 A3036 RMK A01 T00290023  RH  096%=      5-min Rain = 0
KDC1 100412Z 10003KT 03/02 A3036 RMK A01 T00290024  RH  096%=      5-min Rain = 0
KDC1 100413Z 11001KT 03/02 A3036 RMK A01 T00280022  RH  096%=      5-min Rain = 0
KDC1 100414Z 12000KT 03/02 A3036 RMK A01 T00250017  RH  095%=      5-min Rain = 0
KDC1 100415Z 00000KT 02/02 A3036 RMK A01 T00240016  RH  095%=      5-min Rain = 0
KDC1 100416Z 00000KT 02/02 A3036 RMK A01 T00240017  RH  095%=      5-min Rain = 0
KDC1 100417Z 01000KT 02/02 A3036 RMK A01 T00240017  RH  096%=      5-min Rain = 0
KDC1 100418Z 00000KT 03/02 A3036 RMK A01 T00250019  RH  096%=      5-min Rain = 0
KDC1 100419Z 00000KT 03/02 A3036 RMK A01 T00260021  RH  096%=      5-min Rain = 0
KDC1 100420Z 00000KT 03/02 A3036 RMK A01 T00270022  RH  096%=      5-min Rain = 0
KDC1 100421Z 00000KT 03/02 A3036 RMK A01 T00280023  RH  096%=      5-min Rain = 0
KDC1 100422Z 00000KT 03/02 A3036 RMK A01 T00290024  RH  097%=      5-min Rain = 0
KDC1 100423Z 00000KT 03/03 A3036 RMK A01 T00300025  RH  097%=      5-min Rain = 0
KDC1 100424Z 00000KT 03/03 A3036 RMK A01 T00300025  RH  097%=      5-min Rain = 0
KDC1 100425Z 00000KT 03/03 A3036 RMK A01 T00300025  RH  097%=      5-min Rain = 0
KDC1 100426Z 00000KT 03/02 A3036 RMK A01 T00290024  RH  096%=      5-min Rain = 0
KDC1 100427Z 00000KT 03/02 A3036 RMK A01 T00290023  RH  096%=      5-min Rain = 0
KDC1 100428Z 00000KT 03/02 A3036 RMK A01 T00280023  RH  096%=      5-min Rain = 0
KDC1 100429Z 00000KT 03/02 A3036 RMK A01 T00280023  RH  096%=      5-min Rain = 0
KDC1 100430Z 00000KT 03/02 A3036 RMK A01 T00290023  RH  096%=      5-min Rain = 0
KDC1 100431Z 29000KT 03/02 A3036 RMK A01 T00290023  RH  096%=      5-min Rain = 0
KDC1 100432Z 28001KT 03/02 A3036 RMK A01 T00290024  RH  096%=      5-min Rain = 0
KDC1 100433Z 28001KT 03/02 A3036 RMK A01 T00290024  RH  096%=      5-min Rain = 0
KDC1 100434Z 28002KT 03/02 A3036 RMK A01 T00290023  RH  096%=      5-min Rain = 0
KDC1 100435Z 29003KT 03/02 A3036 RMK A01 T00290023  RH  096%=      5-min Rain = 0
KDC1 100436Z 29003KT 03/02 A3036 RMK A01 T00290023  RH  096%=      5-min Rain = 0
KDC1 100437Z 30003KT 03/02 A3036 RMK A01 T00290023  RH  096%=      5-min Rain = 0
KDC1 100438Z 30003KT 03/03 A3036 RMK A01 T00300025  RH  096%=      5-min Rain = 0
KDC1 100439Z 29003KT 03/03 A3036 RMK A01 T00300025  RH  096%=      5-min Rain = 0
KDC1 100440Z 29003KT 03/03 A3036 RMK A01 T00310025  RH  096%=      5-min Rain = 0
KDC1 100441Z 28003KT 03/03 A3036 RMK A01 T00320026  RH  096%=      5-min Rain = 0
KDC1 100442Z 28004KT 03/03 A3036 RMK A01 T00330027  RH  096%=      5-min Rain = 0
KDC1 100443Z 28004KT 03/03 A3036 RMK A01 T00330026  RH  095%=      5-min Rain = 0
KDC1 100444Z 28004KT 03/03 A3036 RMK A01 T00320025  RH  095%=      5-min Rain = 0
KDC1 100445Z 27004KT 03/02 A3036 RMK A01 T00310023  RH  094%=      5-min Rain = 0
KDC1 100446Z 27004KT 03/02 A3036 RMK A01 T00300022  RH  094%=      5-min Rain = 0
KDC1 100447Z 27004KT 03/02 A3036 RMK A01 T00300022  RH  094%=      5-min Rain = 0
KDC1 100448Z 27004KT 03/02 A3037 RMK A01 T00300021  RH  094%=      5-min Rain = 0
KDC1 100449Z 27003KT 03/02 A3037 RMK A01 T00290021  RH  094%=      5-min Rain = 0
KDC1 100450Z 27003KT 03/02 A3037 RMK A01 T00290020  RH  094%=      5-min Rain = 0
KDC1 100451Z 26004KT 03/02 A3037 RMK A01 T00290021  RH  094%=      5-min Rain = 0
KDC1 100452Z 26004KT 03/02 A3037 RMK A01 T00290021  RH  095%=      5-min Rain = 0
KDC1 100453Z 27004KT 03/02 A3037 RMK A01 T00300022  RH  095%=      5-min Rain = 0
KDC1 100454Z 27004KT 03/02 A3037 RMK A01 T00310023  RH  095%=      5-min Rain = 0
KDC1 100455Z 27004KT 03/02 A3037 RMK A01 T00310023  RH  094%=      5-min Rain = 0
KDC1 100456Z 28004KT 03/02 A3037 RMK A01 T00310022  RH  094%=      5-min Rain = 0
KDC1 100457Z 28003KT 03/02 A3037 RMK A01 T00300020  RH  093%=      5-min Rain = 0
KDC1 100458Z 28003KT 03/02 A3037 RMK A01 T00280017  RH  093%=      5-min Rain = 0
KDC1 100459Z 28003KT 03/02 A3037 RMK A01 T00260016  RH  093%=      5-min Rain = 0
KDC1 100500Z 29003KT 03/01 A3037 RMK A01 T00250014  RH  093%=      5-min Rain = 0
KDC1 100501Z 31002KT 02/01 A3037 RMK A01 T00240014  RH  093%=      5-min Rain = 0
KDC1 100502Z 34002KT 02/02 A3037 RMK A01 T00240015  RH  094%=      5-min Rain = 0
KDC1 100503Z 32002KT 02/02 A3037 RMK A01 T00240015  RH  094%=      5-min Rain = 0
KDC1 100504Z 32002KT 02/02 A3037 RMK A01 T00230015  RH  094%=      5-min Rain = 0
KDC1 100505Z 14001KT 02/02 A3037 RMK A01 T00230015  RH  094%=      5-min Rain = 0
KDC1 100506Z 15005KT 02/01 A3037 RMK A01 T00210012  RH  094%=      5-min Rain = 0
KDC1 100507Z 15003KT 02/01 A3037 RMK A01 T00200011  RH  094%=      5-min Rain = 0
KDC1 100508Z 19001KT 02/01 A3037 RMK A01 T00200013  RH  095%=      5-min Rain = 0
KDC1 100509Z 19001KT 02/01 A3037 RMK A01 T00210014  RH  095%=      5-min Rain = 0
KDC1 100510Z 17001KT 02/01 A3038 RMK A01 T00210014  RH  095%=      5-min Rain = 0
KDC1 100511Z 18002KT 02/02 A3038 RMK A01 T00210015  RH  095%=      5-min Rain = 0
KDC1 100512Z 18001KT 02/02 A3038 RMK A01 T00220015  RH  096%=      5-min Rain = 0
KDC1 100513Z 00000KT 02/02 A3038 RMK A01 T00230017  RH  096%=      5-min Rain = 0
KDC1 100514Z 24000KT 02/02 A3037 RMK A01 T00230017  RH  096%=      5-min Rain = 0
KDC1 100515Z 24000KT 02/02 A3037 RMK A01 T00230017  RH  096%=      5-min Rain = 0
KDC1 100516Z 00000KT 02/02 A3037 RMK A01 T00230017  RH  096%=      5-min Rain = 0
KDC1 100517Z 17001KT 02/02 A3037 RMK A01 T00230017  RH  096%=      5-min Rain = 0
KDC1 100518Z 19002KT 02/02 A3037 RMK A01 T00230017  RH  096%=      5-min Rain = 0
KDC1 100519Z 19002KT 02/02 A3037 RMK A01 T00230017  RH  096%=      5-min Rain = 0
KDC1 100520Z 18001KT 02/02 A3037 RMK A01 T00240018  RH  096%=      5-min Rain = 0
KDC1 100521Z 20002KT 02/02 A3037 RMK A01 T00240018  RH  096%=      5-min Rain = 0
KDC1 100522Z 23002KT 02/02 A3037 RMK A01 T00230016  RH  095%=      5-min Rain = 0
KDC1 100523Z 24002KT 02/02 A3037 RMK A01 T00230016  RH  095%=      5-min Rain = 0
KDC1 100524Z 23001KT 02/02 A3037 RMK A01 T00230016  RH  096%=      5-min Rain = 0
KDC1 100525Z 23000KT 02/02 A3037 RMK A01 T00230016  RH  096%=      5-min Rain = 0
KDC1 100526Z 23001KT 02/02 A3037 RMK A01 T00230016  RH  095%=      5-min Rain = 0
KDC1 100527Z 22001KT 02/02 A3037 RMK A01 T00220016  RH  095%=      5-min Rain = 0
KDC1 100528Z 19001KT 02/02 A3037 RMK A01 T00220015  RH  095%=      5-min Rain = 0
KDC1 100529Z 19002KT 02/01 A3038 RMK A01 T00210014  RH  095%=      5-min Rain = 0
KDC1 100530Z 20003KT 02/01 A3038 RMK A01 T00200013  RH  095%=      5-min Rain = 0
KDC1 100531Z 21002KT 02/01 A3038 RMK A01 T00190012  RH  095%=      5-min Rain = 0
KDC1 100532Z 23001KT 02/01 A3038 RMK A01 T00190012  RH  095%=      5-min Rain = 0
KDC1 100533Z 24001KT 02/01 A3038 RMK A01 T00190012  RH  095%=      5-min Rain = 0
KDC1 100534Z 24001KT 02/01 A3038 RMK A01 T00190012  RH  096%=      5-min Rain = 0
KDC1 100535Z 22001KT 02/01 A3038 RMK A01 T00180012  RH  095%=      5-min Rain = 0
KDC1 100536Z 22002KT 02/01 A3038 RMK A01 T00180012  RH  096%=      5-min Rain = 0
KDC1 100537Z 22001KT 02/01 A3038 RMK A01 T00170011  RH  096%=      5-min Rain = 0
KDC1 100538Z 24001KT 02/01 A3038 RMK A01 T00170011  RH  096%=      5-min Rain = 0
KDC1 100539Z 25002KT 02/01 A3038 RMK A01 T00170011  RH  096%=      5-min Rain = 0
KDC1 100540Z 24003KT 02/01 A3038 RMK A01 T00190013  RH  096%=      5-min Rain = 0
KDC1 100541Z 24003KT 02/02 A3037 RMK A01 T00200015  RH  096%=      5-min Rain = 0
KDC1 100542Z 25003KT 02/02 A3037 RMK A01 T00200015  RH  096%=      5-min Rain = 0
KDC1 100543Z 26003KT 02/02 A3037 RMK A01 T00200015  RH  096%=      5-min Rain = 0
KDC1 100544Z 27003KT 02/01 A3038 RMK A01 T00200014  RH  096%=      5-min Rain = 0
KDC1 100545Z 27003KT 02/01 A3038 RMK A01 T00190013  RH  096%=      5-min Rain = 0
KDC1 100546Z 26002KT 02/01 A3038 RMK A01 T00180011  RH  096%=      5-min Rain = 0
KDC1 100547Z 26002KT 02/01 A3038 RMK A01 T00160010  RH  095%=      5-min Rain = 0
KDC1 100548Z 27002KT 01/01 A3038 RMK A01 T00140008  RH  095%=      5-min Rain = 0
KDC1 100549Z 28002KT 01/01 A3038 RMK A01 T00130007  RH  095%=      5-min Rain = 0
KDC1 100550Z 27002KT 01/01 A3038 RMK A01 T00130006  RH  095%=      5-min Rain = 0
KDC1 100551Z 27001KT 01/01 A3038 RMK A01 T00120006  RH  096%=      5-min Rain = 0
KDC1 100552Z 25002KT 01/01 A3038 RMK A01 T00120006  RH  096%=      5-min Rain = 0
KDC1 100553Z 21001KT 01/01 A3038 RMK A01 T00130008  RH  096%=      5-min Rain = 0
KDC1 100554Z 18000KT 01/01 A3038 RMK A01 T00130007  RH  096%=      5-min Rain = 0
KDC1 100555Z 21001KT 01/01 A3038 RMK A01 T00120006  RH  096%=      5-min Rain = 0
KDC1 100556Z 26002KT 01/00 A3038 RMK A01 T00100003  RH  096%=      5-min Rain = 0
KDC1 100557Z 26001KT 01/01 A3038 RMK A01 T00110005  RH  096%=      5-min Rain = 0
KDC1 100558Z 32000KT 01/01 A3038 RMK A01 T00140009  RH  097%=      5-min Rain = 0
KDC1 100559Z 28004KT 02/01 A3038 RMK A01 T00170013  RH  097%=      5-min Rain = 0

Page generated in 0.1304 seconds.